
<gpx xmlns="http://www.topografix.com/GPX/1/1" xmlns:gpxx="http://www.garmin.com/xmlschemas/GpxExtensions/v3" xmlns:xsi="http://www.w3.org/2001/XMLSchema-instance" version="1.1" creator="Adze - https://getadze.com/" xsi:schemaLocation="http://www.topografix.com/GPX/1/1 http://www.topografix.com/GPX/1/1/gpx.xsd http://www.garmin.com/xmlschemas/GpxExtensions/v3 http://www.garmin.com/xmlschemas/GpxExtensionsv3.xsd">
    <metadata>
        <name>Untitled Document</name>
        <link href="http://e-ivanov.ru/projects/strava-export-gpx/"></link>
        <time>2018-10-03T02:00:35.228Z</time>
    </metadata>
    <trk>
        <name>September 2018 - Sunday</name>
        <extensions>
            <gpxx:TrackExtension>
                <gpxx:DisplayColor>DarkMagenta</gpxx:DisplayColor>
            </gpxx:TrackExtension>
        </extensions>
        <trkseg>
            <trkpt lon="99.341563" lat="14.026890">
                <ele>98.600000</ele>
                <time>2018-09-30T03:04:00Z</time>
            </trkpt>
            <trkpt lon="99.341563" lat="14.026806">
                <ele>98.800000</ele>
                <time>2018-09-30T03:04:04Z</time>
            </trkpt>
            <trkpt lon="99.341584" lat="14.026223">
                <ele>98.600000</ele>
                <time>2018-09-30T03:04:26Z</time>
            </trkpt>
            <trkpt lon="99.341366" lat="14.025805">
                <ele>98.800000</ele>
                <time>2018-09-30T03:04:43Z</time>
            </trkpt>
            <trkpt lon="99.341085" lat="14.025781">
                <ele>99.800000</ele>
                <time>2018-09-30T03:04:55Z</time>
            </trkpt>
            <trkpt lon="99.340564" lat="14.025746">
                <ele>100.600000</ele>
                <time>2018-09-30T03:05:12Z</time>
            </trkpt>
            <trkpt lon="99.340460" lat="14.025744">
                <ele>100.800000</ele>
                <time>2018-09-30T03:05:16Z</time>
            </trkpt>
            <trkpt lon="99.339900" lat="14.025691">
                <ele>102.000000</ele>
                <time>2018-09-30T03:05:34Z</time>
            </trkpt>
            <trkpt lon="99.339866" lat="14.025670">
                <ele>102.200000</ele>
                <time>2018-09-30T03:05:36Z</time>
            </trkpt>
            <trkpt lon="99.339785" lat="14.025521">
                <ele>102.400000</ele>
                <time>2018-09-30T03:05:44Z</time>
            </trkpt>
            <trkpt lon="99.339767" lat="14.025414">
                <ele>102.200000</ele>
                <time>2018-09-30T03:05:49Z</time>
            </trkpt>
            <trkpt lon="99.339763" lat="14.025280">
                <ele>102.200000</ele>
                <time>2018-09-30T03:05:55Z</time>
            </trkpt>
            <trkpt lon="99.339670" lat="14.024737">
                <ele>101.600000</ele>
                <time>2018-09-30T03:06:11Z</time>
            </trkpt>
            <trkpt lon="99.339635" lat="14.024516">
                <ele>101.200000</ele>
                <time>2018-09-30T03:06:17Z</time>
            </trkpt>
            <trkpt lon="99.339625" lat="14.024382">
                <ele>101.000000</ele>
                <time>2018-09-30T03:06:20Z</time>
            </trkpt>
            <trkpt lon="99.339648" lat="14.024189">
                <ele>100.800000</ele>
                <time>2018-09-30T03:06:24Z</time>
            </trkpt>
            <trkpt lon="99.339662" lat="14.024034">
                <ele>100.000000</ele>
                <time>2018-09-30T03:06:27Z</time>
            </trkpt>
            <trkpt lon="99.339699" lat="14.023488">
                <ele>99.200000</ele>
                <time>2018-09-30T03:06:35Z</time>
            </trkpt>
            <trkpt lon="99.339718" lat="14.023110">
                <ele>98.200000</ele>
                <time>2018-09-30T03:06:40Z</time>
            </trkpt>
            <trkpt lon="99.339731" lat="14.022726">
                <ele>97.000000</ele>
                <time>2018-09-30T03:06:45Z</time>
            </trkpt>
            <trkpt lon="99.339751" lat="14.022187">
                <ele>95.800000</ele>
                <time>2018-09-30T03:06:52Z</time>
            </trkpt>
            <trkpt lon="99.339745" lat="14.021982">
                <ele>94.800000</ele>
                <time>2018-09-30T03:06:55Z</time>
            </trkpt>
            <trkpt lon="99.339706" lat="14.021686">
                <ele>94.200000</ele>
                <time>2018-09-30T03:07:00Z</time>
            </trkpt>
            <trkpt lon="99.339675" lat="14.021436">
                <ele>94.200000</ele>
                <time>2018-09-30T03:07:05Z</time>
            </trkpt>
            <trkpt lon="99.339652" lat="14.021244">
                <ele>94.800000</ele>
                <time>2018-09-30T03:07:09Z</time>
            </trkpt>
            <trkpt lon="99.339592" lat="14.020679">
                <ele>95.400000</ele>
                <time>2018-09-30T03:07:20Z</time>
            </trkpt>
            <trkpt lon="99.339579" lat="14.020535">
                <ele>95.400000</ele>
                <time>2018-09-30T03:07:23Z</time>
            </trkpt>
            <trkpt lon="99.339565" lat="14.020156">
                <ele>95.000000</ele>
                <time>2018-09-30T03:07:32Z</time>
            </trkpt>
            <trkpt lon="99.339863" lat="14.020101">
                <ele>94.800000</ele>
                <time>2018-09-30T03:07:39Z</time>
            </trkpt>
            <trkpt lon="99.340154" lat="14.020062">
                <ele>94.000000</ele>
                <time>2018-09-30T03:07:45Z</time>
            </trkpt>
            <trkpt lon="99.340158" lat="14.020011">
                <ele>93.800000</ele>
                <time>2018-09-30T03:07:47Z</time>
            </trkpt>
            <trkpt lon="99.340109" lat="14.019857">
                <ele>92.600000</ele>
                <time>2018-09-30T03:07:53Z</time>
            </trkpt>
            <trkpt lon="99.339917" lat="14.019721">
                <ele>92.600000</ele>
                <time>2018-09-30T03:08:06Z</time>
            </trkpt>
            <trkpt lon="99.339441" lat="14.019514">
                <ele>93.800000</ele>
                <time>2018-09-30T03:08:27Z</time>
            </trkpt>
            <trkpt lon="99.339216" lat="14.019434">
                <ele>94.800000</ele>
                <time>2018-09-30T03:08:38Z</time>
            </trkpt>
            <trkpt lon="99.339031" lat="14.019369">
                <ele>95.800000</ele>
                <time>2018-09-30T03:08:46Z</time>
            </trkpt>
            <trkpt lon="99.338783" lat="14.019215">
                <ele>96.800000</ele>
                <time>2018-09-30T03:08:59Z</time>
            </trkpt>
            <trkpt lon="99.338593" lat="14.019160">
                <ele>98.000000</ele>
                <time>2018-09-30T03:09:09Z</time>
            </trkpt>
            <trkpt lon="99.338187" lat="14.019042">
                <ele>99.200000</ele>
                <time>2018-09-30T03:09:28Z</time>
            </trkpt>
            <trkpt lon="99.337924" lat="14.018944">
                <ele>100.200000</ele>
                <time>2018-09-30T03:09:43Z</time>
            </trkpt>
            <trkpt lon="99.337725" lat="14.018850">
                <ele>101.200000</ele>
                <time>2018-09-30T03:09:56Z</time>
            </trkpt>
            <trkpt lon="99.337564" lat="14.018785">
                <ele>102.400000</ele>
                <time>2018-09-30T03:10:08Z</time>
            </trkpt>
            <trkpt lon="99.337495" lat="14.018758">
                <ele>103.400000</ele>
                <time>2018-09-30T03:10:13Z</time>
            </trkpt>
            <trkpt lon="99.337264" lat="14.018657">
                <ele>104.400000</ele>
                <time>2018-09-30T03:10:30Z</time>
            </trkpt>
            <trkpt lon="99.337142" lat="14.018558">
                <ele>105.600000</ele>
                <time>2018-09-30T03:10:41Z</time>
            </trkpt>
            <trkpt lon="99.336986" lat="14.018417">
                <ele>106.400000</ele>
                <time>2018-09-30T03:10:55Z</time>
            </trkpt>
            <trkpt lon="99.336860" lat="14.018310">
                <ele>107.400000</ele>
                <time>2018-09-30T03:11:07Z</time>
            </trkpt>
            <trkpt lon="99.336781" lat="14.018238">
                <ele>108.600000</ele>
                <time>2018-09-30T03:11:15Z</time>
            </trkpt>
            <trkpt lon="99.336682" lat="14.018080">
                <ele>109.600000</ele>
                <time>2018-09-30T03:11:28Z</time>
            </trkpt>
            <trkpt lon="99.336677" lat="14.018067">
                <ele>109.600000</ele>
                <time>2018-09-30T03:11:29Z</time>
            </trkpt>
            <trkpt lon="99.336565" lat="14.017877">
                <ele>110.600000</ele>
                <time>2018-09-30T03:11:42Z</time>
            </trkpt>
            <trkpt lon="99.336536" lat="14.017855">
                <ele>110.600000</ele>
                <time>2018-09-30T03:11:44Z</time>
            </trkpt>
            <trkpt lon="99.336394" lat="14.017722">
                <ele>111.600000</ele>
                <time>2018-09-30T03:11:57Z</time>
            </trkpt>
            <trkpt lon="99.336291" lat="14.017635">
                <ele>112.600000</ele>
                <time>2018-09-30T03:12:06Z</time>
            </trkpt>
            <trkpt lon="99.336145" lat="14.017529">
                <ele>113.000000</ele>
                <time>2018-09-30T03:12:16Z</time>
            </trkpt>
            <trkpt lon="99.336144" lat="14.017364">
                <ele>113.200000</ele>
                <time>2018-09-30T03:12:24Z</time>
            </trkpt>
            <trkpt lon="99.336144" lat="14.017017">
                <ele>112.400000</ele>
                <time>2018-09-30T03:12:33Z</time>
            </trkpt>
            <trkpt lon="99.336157" lat="14.016927">
                <ele>111.600000</ele>
                <time>2018-09-30T03:12:35Z</time>
            </trkpt>
            <trkpt lon="99.336192" lat="14.016829">
                <ele>110.400000</ele>
                <time>2018-09-30T03:12:39Z</time>
            </trkpt>
            <trkpt lon="99.336264" lat="14.016721">
                <ele>110.000000</ele>
                <time>2018-09-30T03:12:44Z</time>
            </trkpt>
            <trkpt lon="99.336361" lat="14.016633">
                <ele>109.400000</ele>
                <time>2018-09-30T03:12:48Z</time>
            </trkpt>
            <trkpt lon="99.336410" lat="14.016501">
                <ele>109.400000</ele>
                <time>2018-09-30T03:12:52Z</time>
            </trkpt>
            <trkpt lon="99.336377" lat="14.016412">
                <ele>109.200000</ele>
                <time>2018-09-30T03:12:56Z</time>
            </trkpt>
            <trkpt lon="99.336290" lat="14.016209">
                <ele>108.400000</ele>
                <time>2018-09-30T03:13:02Z</time>
            </trkpt>
            <trkpt lon="99.336213" lat="14.016016">
                <ele>107.600000</ele>
                <time>2018-09-30T03:13:08Z</time>
            </trkpt>
            <trkpt lon="99.336079" lat="14.015572">
                <ele>108.600000</ele>
                <time>2018-09-30T03:13:27Z</time>
            </trkpt>
            <trkpt lon="99.336057" lat="14.015516">
                <ele>109.400000</ele>
                <time>2018-09-30T03:13:31Z</time>
            </trkpt>
            <trkpt lon="99.336050" lat="14.015505">
                <ele>109.600000</ele>
                <time>2018-09-30T03:13:32Z</time>
            </trkpt>
            <trkpt lon="99.336022" lat="14.015408">
                <ele>110.800000</ele>
                <time>2018-09-30T03:13:39Z</time>
            </trkpt>
            <trkpt lon="99.336003" lat="14.015343">
                <ele>111.800000</ele>
                <time>2018-09-30T03:13:45Z</time>
            </trkpt>
            <trkpt lon="99.336356" lat="14.015254">
                <ele>112.200000</ele>
                <time>2018-09-30T03:14:01Z</time>
            </trkpt>
            <trkpt lon="99.336619" lat="14.015253">
                <ele>111.600000</ele>
                <time>2018-09-30T03:14:05Z</time>
            </trkpt>
            <trkpt lon="99.336694" lat="14.015253">
                <ele>111.400000</ele>
                <time>2018-09-30T03:14:06Z</time>
            </trkpt>
            <trkpt lon="99.336831" lat="14.015211">
                <ele>110.400000</ele>
                <time>2018-09-30T03:14:08Z</time>
            </trkpt>
            <trkpt lon="99.336936" lat="14.015113">
                <ele>109.400000</ele>
                <time>2018-09-30T03:14:10Z</time>
            </trkpt>
            <trkpt lon="99.336990" lat="14.015062">
                <ele>108.600000</ele>
                <time>2018-09-30T03:14:11Z</time>
            </trkpt>
            <trkpt lon="99.337048" lat="14.015014">
                <ele>107.600000</ele>
                <time>2018-09-30T03:14:12Z</time>
            </trkpt>
            <trkpt lon="99.337167" lat="14.014923">
                <ele>106.200000</ele>
                <time>2018-09-30T03:14:14Z</time>
            </trkpt>
            <trkpt lon="99.337293" lat="14.014862">
                <ele>105.000000</ele>
                <time>2018-09-30T03:14:16Z</time>
            </trkpt>
            <trkpt lon="99.337543" lat="14.014837">
                <ele>103.400000</ele>
                <time>2018-09-30T03:14:20Z</time>
            </trkpt>
            <trkpt lon="99.337660" lat="14.014750">
                <ele>101.800000</ele>
                <time>2018-09-30T03:14:23Z</time>
            </trkpt>
            <trkpt lon="99.337808" lat="14.014611">
                <ele>100.400000</ele>
                <time>2018-09-30T03:14:27Z</time>
            </trkpt>
            <trkpt lon="99.337841" lat="14.014569">
                <ele>100.000000</ele>
                <time>2018-09-30T03:14:28Z</time>
            </trkpt>
            <trkpt lon="99.337990" lat="14.014406">
                <ele>99.400000</ele>
                <time>2018-09-30T03:14:32Z</time>
            </trkpt>
            <trkpt lon="99.338029" lat="14.014360">
                <ele>99.000000</ele>
                <time>2018-09-30T03:14:33Z</time>
            </trkpt>
            <trkpt lon="99.338111" lat="14.014212">
                <ele>98.000000</ele>
                <time>2018-09-30T03:14:36Z</time>
            </trkpt>
            <trkpt lon="99.338056" lat="14.014113">
                <ele>96.800000</ele>
                <time>2018-09-30T03:14:39Z</time>
            </trkpt>
            <trkpt lon="99.338026" lat="14.014084">
                <ele>96.800000</ele>
                <time>2018-09-30T03:14:40Z</time>
            </trkpt>
            <trkpt lon="99.337995" lat="14.014058">
                <ele>96.600000</ele>
                <time>2018-09-30T03:14:41Z</time>
            </trkpt>
            <trkpt lon="99.337910" lat="14.013965">
                <ele>96.400000</ele>
                <time>2018-09-30T03:14:44Z</time>
            </trkpt>
            <trkpt lon="99.337680" lat="14.013693">
                <ele>95.600000</ele>
                <time>2018-09-30T03:14:52Z</time>
            </trkpt>
            <trkpt lon="99.337601" lat="14.013596">
                <ele>95.200000</ele>
                <time>2018-09-30T03:14:55Z</time>
            </trkpt>
            <trkpt lon="99.337552" lat="14.013525">
                <ele>94.600000</ele>
                <time>2018-09-30T03:14:57Z</time>
            </trkpt>
            <trkpt lon="99.337440" lat="14.013335">
                <ele>93.600000</ele>
                <time>2018-09-30T03:15:05Z</time>
            </trkpt>
            <trkpt lon="99.337347" lat="14.013257">
                <ele>93.400000</ele>
                <time>2018-09-30T03:15:09Z</time>
            </trkpt>
            <trkpt lon="99.337167" lat="14.013122">
                <ele>93.000000</ele>
                <time>2018-09-30T03:15:15Z</time>
            </trkpt>
            <trkpt lon="99.336972" lat="14.012994">
                <ele>92.600000</ele>
                <time>2018-09-30T03:15:20Z</time>
            </trkpt>
            <trkpt lon="99.336914" lat="14.012942">
                <ele>92.200000</ele>
                <time>2018-09-30T03:15:22Z</time>
            </trkpt>
            <trkpt lon="99.336811" lat="14.012866">
                <ele>91.800000</ele>
                <time>2018-09-30T03:15:25Z</time>
            </trkpt>
            <trkpt lon="99.336770" lat="14.012838">
                <ele>91.600000</ele>
                <time>2018-09-30T03:15:26Z</time>
            </trkpt>
            <trkpt lon="99.336649" lat="14.012686">
                <ele>91.200000</ele>
                <time>2018-09-30T03:15:30Z</time>
            </trkpt>
            <trkpt lon="99.336575" lat="14.012612">
                <ele>90.600000</ele>
                <time>2018-09-30T03:15:34Z</time>
            </trkpt>
            <trkpt lon="99.336537" lat="14.012529">
                <ele>90.000000</ele>
                <time>2018-09-30T03:15:37Z</time>
            </trkpt>
            <trkpt lon="99.336504" lat="14.012404">
                <ele>89.600000</ele>
                <time>2018-09-30T03:15:40Z</time>
            </trkpt>
            <trkpt lon="99.336506" lat="14.012123">
                <ele>88.400000</ele>
                <time>2018-09-30T03:15:48Z</time>
            </trkpt>
            <trkpt lon="99.336390" lat="14.011583">
                <ele>88.200000</ele>
                <time>2018-09-30T03:16:04Z</time>
            </trkpt>
            <trkpt lon="99.336293" lat="14.011350">
                <ele>87.600000</ele>
                <time>2018-09-30T03:16:10Z</time>
            </trkpt>
            <trkpt lon="99.336220" lat="14.011208">
                <ele>86.600000</ele>
                <time>2018-09-30T03:16:14Z</time>
            </trkpt>
            <trkpt lon="99.336034" lat="14.010772">
                <ele>85.600000</ele>
                <time>2018-09-30T03:16:23Z</time>
            </trkpt>
            <trkpt lon="99.335885" lat="14.010237">
                <ele>86.200000</ele>
                <time>2018-09-30T03:16:40Z</time>
            </trkpt>
            <trkpt lon="99.335870" lat="14.010105">
                <ele>86.600000</ele>
                <time>2018-09-30T03:16:44Z</time>
            </trkpt>
            <trkpt lon="99.335859" lat="14.010074">
                <ele>86.600000</ele>
                <time>2018-09-30T03:16:45Z</time>
            </trkpt>
            <trkpt lon="99.335764" lat="14.010026">
                <ele>86.800000</ele>
                <time>2018-09-30T03:16:49Z</time>
            </trkpt>
            <trkpt lon="99.335626" lat="14.010035">
                <ele>87.400000</ele>
                <time>2018-09-30T03:16:57Z</time>
            </trkpt>
            <trkpt lon="99.335604" lat="14.010040">
                <ele>87.600000</ele>
                <time>2018-09-30T03:16:59Z</time>
            </trkpt>
            <trkpt lon="99.335576" lat="14.010048">
                <ele>88.000000</ele>
                <time>2018-09-30T03:17:01Z</time>
            </trkpt>
            <trkpt lon="99.335560" lat="14.010050">
                <ele>88.000000</ele>
                <time>2018-09-30T03:17:02Z</time>
            </trkpt>
            <trkpt lon="99.335452" lat="14.010087">
                <ele>88.600000</ele>
                <time>2018-09-30T03:17:10Z</time>
            </trkpt>
            <trkpt lon="99.335329" lat="14.010141">
                <ele>89.800000</ele>
                <time>2018-09-30T03:17:19Z</time>
            </trkpt>
            <trkpt lon="99.335245" lat="14.010163">
                <ele>90.800000</ele>
                <time>2018-09-30T03:17:25Z</time>
            </trkpt>
            <trkpt lon="99.335231" lat="14.010158">
                <ele>90.800000</ele>
                <time>2018-09-30T03:17:26Z</time>
            </trkpt>
            <trkpt lon="99.335185" lat="14.010016">
                <ele>92.000000</ele>
                <time>2018-09-30T03:17:37Z</time>
            </trkpt>
            <trkpt lon="99.335194" lat="14.009973">
                <ele>92.200000</ele>
                <time>2018-09-30T03:17:39Z</time>
            </trkpt>
            <trkpt lon="99.335175" lat="14.009817">
                <ele>92.200000</ele>
                <time>2018-09-30T03:17:46Z</time>
            </trkpt>
            <trkpt lon="99.334857" lat="14.009497">
                <ele>93.000000</ele>
                <time>2018-09-30T03:18:09Z</time>
            </trkpt>
            <trkpt lon="99.334540" lat="14.009374">
                <ele>94.000000</ele>
                <time>2018-09-30T03:18:26Z</time>
            </trkpt>
            <trkpt lon="99.334523" lat="14.009364">
                <ele>94.200000</ele>
                <time>2018-09-30T03:18:28Z</time>
            </trkpt>
            <trkpt lon="99.334507" lat="14.009354">
                <ele>94.400000</ele>
                <time>2018-09-30T03:18:30Z</time>
            </trkpt>
            <trkpt lon="99.334454" lat="14.009307">
                <ele>95.000000</ele>
                <time>2018-09-30T03:18:35Z</time>
            </trkpt>
            <trkpt lon="99.334351" lat="14.009222">
                <ele>95.200000</ele>
                <time>2018-09-30T03:18:42Z</time>
            </trkpt>
            <trkpt lon="99.334000" lat="14.008826">
                <ele>95.200000</ele>
                <time>2018-09-30T03:19:03Z</time>
            </trkpt>
            <trkpt lon="99.333806" lat="14.008625">
                <ele>96.200000</ele>
                <time>2018-09-30T03:19:15Z</time>
            </trkpt>
            <trkpt lon="99.333292" lat="14.008382">
                <ele>97.000000</ele>
                <time>2018-09-30T03:19:37Z</time>
            </trkpt>
            <trkpt lon="99.332956" lat="14.008233">
                <ele>96.800000</ele>
                <time>2018-09-30T03:19:51Z</time>
            </trkpt>
            <trkpt lon="99.332803" lat="14.008016">
                <ele>95.800000</ele>
                <time>2018-09-30T03:19:59Z</time>
            </trkpt>
            <trkpt lon="99.332785" lat="14.007973">
                <ele>95.400000</ele>
                <time>2018-09-30T03:20:02Z</time>
            </trkpt>
            <trkpt lon="99.332753" lat="14.007878">
                <ele>95.600000</ele>
                <time>2018-09-30T03:20:11Z</time>
            </trkpt>
            <trkpt lon="99.332744" lat="14.007834">
                <ele>96.000000</ele>
                <time>2018-09-30T03:20:15Z</time>
            </trkpt>
            <trkpt lon="99.332741" lat="14.007818">
                <ele>96.200000</ele>
                <time>2018-09-30T03:20:17Z</time>
            </trkpt>
            <trkpt lon="99.332728" lat="14.007792">
                <ele>96.200000</ele>
                <time>2018-09-30T03:20:23Z</time>
            </trkpt>
            <trkpt lon="99.332719" lat="14.007758">
                <ele>96.400000</ele>
                <time>2018-09-30T03:20:27Z</time>
            </trkpt>
            <trkpt lon="99.332693" lat="14.007653">
                <ele>97.400000</ele>
                <time>2018-09-30T03:20:40Z</time>
            </trkpt>
            <trkpt lon="99.332633" lat="14.007592">
                <ele>98.400000</ele>
                <time>2018-09-30T03:20:52Z</time>
            </trkpt>
            <trkpt lon="99.332567" lat="14.007606">
                <ele>98.800000</ele>
                <time>2018-09-30T03:21:00Z</time>
            </trkpt>
            <trkpt lon="99.332547" lat="14.007615">
                <ele>99.000000</ele>
                <time>2018-09-30T03:21:02Z</time>
            </trkpt>
            <trkpt lon="99.332531" lat="14.007621">
                <ele>99.000000</ele>
                <time>2018-09-30T03:21:04Z</time>
            </trkpt>
            <trkpt lon="99.332476" lat="14.007639">
                <ele>99.200000</ele>
                <time>2018-09-30T03:21:09Z</time>
            </trkpt>
            <trkpt lon="99.332467" lat="14.007642">
                <ele>99.200000</ele>
                <time>2018-09-30T03:21:10Z</time>
            </trkpt>
            <trkpt lon="99.332436" lat="14.007663">
                <ele>99.400000</ele>
                <time>2018-09-30T03:21:14Z</time>
            </trkpt>
            <trkpt lon="99.332425" lat="14.007668">
                <ele>99.400000</ele>
                <time>2018-09-30T03:21:15Z</time>
            </trkpt>
            <trkpt lon="99.332355" lat="14.007696">
                <ele>99.800000</ele>
                <time>2018-09-30T03:21:22Z</time>
            </trkpt>
            <trkpt lon="99.332261" lat="14.007730">
                <ele>100.200000</ele>
                <time>2018-09-30T03:21:31Z</time>
            </trkpt>
            <trkpt lon="99.332180" lat="14.007758">
                <ele>101.400000</ele>
                <time>2018-09-30T03:21:44Z</time>
            </trkpt>
            <trkpt lon="99.332033" lat="14.007806">
                <ele>102.000000</ele>
                <time>2018-09-30T03:21:55Z</time>
            </trkpt>
            <trkpt lon="99.330346" lat="14.008195">
                <ele>109.800000</ele>
                <time>2018-09-30T03:25:57Z</time>
            </trkpt>
            <trkpt lon="99.330308" lat="14.008212">
                <ele>110.000000</ele>
                <time>2018-09-30T03:26:01Z</time>
            </trkpt>
            <trkpt lon="99.330283" lat="14.008220">
                <ele>110.400000</ele>
                <time>2018-09-30T03:26:04Z</time>
            </trkpt>
            <trkpt lon="99.330249" lat="14.008226">
                <ele>110.400000</ele>
                <time>2018-09-30T03:26:08Z</time>
            </trkpt>
            <trkpt lon="99.330141" lat="14.008267">
                <ele>111.000000</ele>
                <time>2018-09-30T03:26:32Z</time>
            </trkpt>
            <trkpt lon="99.329988" lat="14.008302">
                <ele>110.600000</ele>
                <time>2018-09-30T03:26:40Z</time>
            </trkpt>
            <trkpt lon="99.329899" lat="14.008317">
                <ele>110.600000</ele>
                <time>2018-09-30T03:26:46Z</time>
            </trkpt>
            <trkpt lon="99.329697" lat="14.008370">
                <ele>111.800000</ele>
                <time>2018-09-30T03:26:59Z</time>
            </trkpt>
            <trkpt lon="99.329668" lat="14.008375">
                <ele>111.800000</ele>
                <time>2018-09-30T03:27:01Z</time>
            </trkpt>
            <trkpt lon="99.329614" lat="14.008392">
                <ele>112.000000</ele>
                <time>2018-09-30T03:27:05Z</time>
            </trkpt>
            <trkpt lon="99.329472" lat="14.008425">
                <ele>112.800000</ele>
                <time>2018-09-30T03:27:15Z</time>
            </trkpt>
            <trkpt lon="99.329404" lat="14.008422">
                <ele>113.200000</ele>
                <time>2018-09-30T03:27:20Z</time>
            </trkpt>
            <trkpt lon="99.329384" lat="14.008416">
                <ele>113.400000</ele>
                <time>2018-09-30T03:27:22Z</time>
            </trkpt>
            <trkpt lon="99.329373" lat="14.008416">
                <ele>113.600000</ele>
                <time>2018-09-30T03:27:23Z</time>
            </trkpt>
            <trkpt lon="99.329362" lat="14.008416">
                <ele>113.600000</ele>
                <time>2018-09-30T03:27:24Z</time>
            </trkpt>
            <trkpt lon="99.329353" lat="14.008414">
                <ele>114.000000</ele>
                <time>2018-09-30T03:27:25Z</time>
            </trkpt>
            <trkpt lon="99.329344" lat="14.008412">
                <ele>114.000000</ele>
                <time>2018-09-30T03:27:26Z</time>
            </trkpt>
            <trkpt lon="99.329293" lat="14.008410">
                <ele>114.600000</ele>
                <time>2018-09-30T03:27:32Z</time>
            </trkpt>
            <trkpt lon="99.329271" lat="14.008408">
                <ele>115.000000</ele>
                <time>2018-09-30T03:27:34Z</time>
            </trkpt>
            <trkpt lon="99.329248" lat="14.008404">
                <ele>115.200000</ele>
                <time>2018-09-30T03:27:36Z</time>
            </trkpt>
            <trkpt lon="99.329239" lat="14.008401">
                <ele>115.200000</ele>
                <time>2018-09-30T03:27:37Z</time>
            </trkpt>
            <trkpt lon="99.329136" lat="14.008365">
                <ele>115.600000</ele>
                <time>2018-09-30T03:27:47Z</time>
            </trkpt>
            <trkpt lon="99.329113" lat="14.008362">
                <ele>115.800000</ele>
                <time>2018-09-30T03:27:49Z</time>
            </trkpt>
            <trkpt lon="99.329047" lat="14.008348">
                <ele>116.800000</ele>
                <time>2018-09-30T03:27:56Z</time>
            </trkpt>
            <trkpt lon="99.329031" lat="14.008333">
                <ele>117.200000</ele>
                <time>2018-09-30T03:27:58Z</time>
            </trkpt>
            <trkpt lon="99.329020" lat="14.008312">
                <ele>117.600000</ele>
                <time>2018-09-30T03:28:00Z</time>
            </trkpt>
            <trkpt lon="99.329008" lat="14.008268">
                <ele>117.800000</ele>
                <time>2018-09-30T03:28:04Z</time>
            </trkpt>
            <trkpt lon="99.328955" lat="14.008059">
                <ele>119.000000</ele>
                <time>2018-09-30T03:28:24Z</time>
            </trkpt>
            <trkpt lon="99.328940" lat="14.008052">
                <ele>119.200000</ele>
                <time>2018-09-30T03:28:26Z</time>
            </trkpt>
            <trkpt lon="99.328842" lat="14.007988">
                <ele>120.200000</ele>
                <time>2018-09-30T03:28:37Z</time>
            </trkpt>
            <trkpt lon="99.328782" lat="14.007917">
                <ele>121.200000</ele>
                <time>2018-09-30T03:28:46Z</time>
            </trkpt>
            <trkpt lon="99.328870" lat="14.007720">
                <ele>122.400000</ele>
                <time>2018-09-30T03:29:03Z</time>
            </trkpt>
            <trkpt lon="99.328901" lat="14.007657">
                <ele>123.200000</ele>
                <time>2018-09-30T03:29:09Z</time>
            </trkpt>
            <trkpt lon="99.328909" lat="14.007648">
                <ele>123.400000</ele>
                <time>2018-09-30T03:29:10Z</time>
            </trkpt>
            <trkpt lon="99.329000" lat="14.007556">
                <ele>124.400000</ele>
                <time>2018-09-30T03:29:20Z</time>
            </trkpt>
            <trkpt lon="99.329370" lat="14.007229">
                <ele>124.800000</ele>
                <time>2018-09-30T03:29:48Z</time>
            </trkpt>
            <trkpt lon="99.329684" lat="14.007117">
                <ele>123.400000</ele>
                <time>2018-09-30T03:29:59Z</time>
            </trkpt>
            <trkpt lon="99.329920" lat="14.007053">
                <ele>122.400000</ele>
                <time>2018-09-30T03:30:04Z</time>
            </trkpt>
            <trkpt lon="99.330109" lat="14.006994">
                <ele>121.200000</ele>
                <time>2018-09-30T03:30:08Z</time>
            </trkpt>
            <trkpt lon="99.330217" lat="14.006961">
                <ele>120.200000</ele>
                <time>2018-09-30T03:30:10Z</time>
            </trkpt>
            <trkpt lon="99.330319" lat="14.006923">
                <ele>119.000000</ele>
                <time>2018-09-30T03:30:12Z</time>
            </trkpt>
            <trkpt lon="99.330365" lat="14.006903">
                <ele>118.400000</ele>
                <time>2018-09-30T03:30:13Z</time>
            </trkpt>
            <trkpt lon="99.330406" lat="14.006882">
                <ele>117.600000</ele>
                <time>2018-09-30T03:30:14Z</time>
            </trkpt>
            <trkpt lon="99.330477" lat="14.006844">
                <ele>116.400000</ele>
                <time>2018-09-30T03:30:16Z</time>
            </trkpt>
            <trkpt lon="99.330536" lat="14.006796">
                <ele>115.200000</ele>
                <time>2018-09-30T03:30:18Z</time>
            </trkpt>
            <trkpt lon="99.330731" lat="14.006646">
                <ele>114.200000</ele>
                <time>2018-09-30T03:30:26Z</time>
            </trkpt>
            <trkpt lon="99.330919" lat="14.006481">
                <ele>113.200000</ele>
                <time>2018-09-30T03:30:37Z</time>
            </trkpt>
            <trkpt lon="99.331107" lat="14.006251">
                <ele>112.600000</ele>
                <time>2018-09-30T03:30:55Z</time>
            </trkpt>
            <trkpt lon="99.331130" lat="14.006220">
                <ele>112.600000</ele>
                <time>2018-09-30T03:31:00Z</time>
            </trkpt>
            <trkpt lon="99.331134" lat="14.006213">
                <ele>112.600000</ele>
                <time>2018-09-30T03:31:01Z</time>
            </trkpt>
            <trkpt lon="99.331148" lat="14.006198">
                <ele>112.600000</ele>
                <time>2018-09-30T03:31:02Z</time>
            </trkpt>
            <trkpt lon="99.331281" lat="14.006042">
                <ele>112.200000</ele>
                <time>2018-09-30T03:31:08Z</time>
            </trkpt>
            <trkpt lon="99.331297" lat="14.006001">
                <ele>112.000000</ele>
                <time>2018-09-30T03:31:09Z</time>
            </trkpt>
            <trkpt lon="99.331353" lat="14.005870">
                <ele>111.000000</ele>
                <time>2018-09-30T03:31:12Z</time>
            </trkpt>
            <trkpt lon="99.331389" lat="14.005789">
                <ele>110.000000</ele>
                <time>2018-09-30T03:31:14Z</time>
            </trkpt>
            <trkpt lon="99.331403" lat="14.005751">
                <ele>109.600000</ele>
                <time>2018-09-30T03:31:15Z</time>
            </trkpt>
            <trkpt lon="99.331427" lat="14.005676">
                <ele>107.800000</ele>
                <time>2018-09-30T03:31:17Z</time>
            </trkpt>
            <trkpt lon="99.331454" lat="14.005592">
                <ele>106.800000</ele>
                <time>2018-09-30T03:31:19Z</time>
            </trkpt>
            <trkpt lon="99.331484" lat="14.005507">
                <ele>105.600000</ele>
                <time>2018-09-30T03:31:24Z</time>
            </trkpt>
            <trkpt lon="99.331490" lat="14.005483">
                <ele>105.200000</ele>
                <time>2018-09-30T03:31:25Z</time>
            </trkpt>
            <trkpt lon="99.331503" lat="14.005360">
                <ele>104.600000</ele>
                <time>2018-09-30T03:31:30Z</time>
            </trkpt>
            <trkpt lon="99.331519" lat="14.004851">
                <ele>103.600000</ele>
                <time>2018-09-30T03:31:46Z</time>
            </trkpt>
            <trkpt lon="99.331513" lat="14.004813">
                <ele>103.600000</ele>
                <time>2018-09-30T03:31:47Z</time>
            </trkpt>
            <trkpt lon="99.331521" lat="14.004611">
                <ele>102.600000</ele>
                <time>2018-09-30T03:31:52Z</time>
            </trkpt>
            <trkpt lon="99.331573" lat="14.004422">
                <ele>102.000000</ele>
                <time>2018-09-30T03:31:56Z</time>
            </trkpt>
            <trkpt lon="99.331634" lat="14.004254">
                <ele>101.200000</ele>
                <time>2018-09-30T03:32:00Z</time>
            </trkpt>
            <trkpt lon="99.331719" lat="14.004053">
                <ele>100.400000</ele>
                <time>2018-09-30T03:32:08Z</time>
            </trkpt>
            <trkpt lon="99.331768" lat="14.004006">
                <ele>101.200000</ele>
                <time>2018-09-30T03:32:23Z</time>
            </trkpt>
            <trkpt lon="99.332109" lat="14.003738">
                <ele>100.200000</ele>
                <time>2018-09-30T03:32:33Z</time>
            </trkpt>
            <trkpt lon="99.332162" lat="14.003716">
                <ele>99.200000</ele>
                <time>2018-09-30T03:32:35Z</time>
            </trkpt>
            <trkpt lon="99.332249" lat="14.003664">
                <ele>97.600000</ele>
                <time>2018-09-30T03:32:38Z</time>
            </trkpt>
            <trkpt lon="99.332276" lat="14.003639">
                <ele>96.800000</ele>
                <time>2018-09-30T03:32:40Z</time>
            </trkpt>
            <trkpt lon="99.332281" lat="14.003630">
                <ele>96.600000</ele>
                <time>2018-09-30T03:32:41Z</time>
            </trkpt>
            <trkpt lon="99.332281" lat="14.003616">
                <ele>96.600000</ele>
                <time>2018-09-30T03:32:42Z</time>
            </trkpt>
            <trkpt lon="99.332269" lat="14.003523">
                <ele>95.400000</ele>
                <time>2018-09-30T03:32:46Z</time>
            </trkpt>
            <trkpt lon="99.332219" lat="14.003185">
                <ele>94.400000</ele>
                <time>2018-09-30T03:32:56Z</time>
            </trkpt>
            <trkpt lon="99.332139" lat="14.002666">
                <ele>93.400000</ele>
                <time>2018-09-30T03:33:13Z</time>
            </trkpt>
            <trkpt lon="99.332124" lat="14.002595">
                <ele>92.800000</ele>
                <time>2018-09-30T03:33:17Z</time>
            </trkpt>
            <trkpt lon="99.332057" lat="14.002473">
                <ele>92.600000</ele>
                <time>2018-09-30T03:33:23Z</time>
            </trkpt>
            <trkpt lon="99.332039" lat="14.002436">
                <ele>92.200000</ele>
                <time>2018-09-30T03:33:25Z</time>
            </trkpt>
            <trkpt lon="99.331837" lat="14.002027">
                <ele>91.200000</ele>
                <time>2018-09-30T03:33:41Z</time>
            </trkpt>
            <trkpt lon="99.331679" lat="14.001706">
                <ele>90.400000</ele>
                <time>2018-09-30T03:33:52Z</time>
            </trkpt>
            <trkpt lon="99.331509" lat="14.001447">
                <ele>90.000000</ele>
                <time>2018-09-30T03:34:00Z</time>
            </trkpt>
            <trkpt lon="99.331488" lat="14.001417">
                <ele>89.800000</ele>
                <time>2018-09-30T03:34:01Z</time>
            </trkpt>
            <trkpt lon="99.331307" lat="14.001204">
                <ele>89.000000</ele>
                <time>2018-09-30T03:34:09Z</time>
            </trkpt>
            <trkpt lon="99.331255" lat="14.001153">
                <ele>89.000000</ele>
                <time>2018-09-30T03:34:11Z</time>
            </trkpt>
            <trkpt lon="99.330839" lat="14.000810">
                <ele>90.000000</ele>
                <time>2018-09-30T03:34:30Z</time>
            </trkpt>
            <trkpt lon="99.330368" lat="14.000555">
                <ele>90.200000</ele>
                <time>2018-09-30T03:34:46Z</time>
            </trkpt>
            <trkpt lon="99.330166" lat="14.000385">
                <ele>90.000000</ele>
                <time>2018-09-30T03:34:55Z</time>
            </trkpt>
            <trkpt lon="99.330151" lat="14.000254">
                <ele>90.000000</ele>
                <time>2018-09-30T03:34:58Z</time>
            </trkpt>
            <trkpt lon="99.330088" lat="14.000078">
                <ele>89.800000</ele>
                <time>2018-09-30T03:35:02Z</time>
            </trkpt>
            <trkpt lon="99.330069" lat="13.999977">
                <ele>89.800000</ele>
                <time>2018-09-30T03:35:04Z</time>
            </trkpt>
            <trkpt lon="99.330046" lat="13.999878">
                <ele>89.000000</ele>
                <time>2018-09-30T03:35:06Z</time>
            </trkpt>
            <trkpt lon="99.329986" lat="13.999719">
                <ele>88.000000</ele>
                <time>2018-09-30T03:35:09Z</time>
            </trkpt>
            <trkpt lon="99.329966" lat="13.999555">
                <ele>86.800000</ele>
                <time>2018-09-30T03:35:12Z</time>
            </trkpt>
            <trkpt lon="99.330036" lat="13.999430">
                <ele>85.600000</ele>
                <time>2018-09-30T03:35:15Z</time>
            </trkpt>
            <trkpt lon="99.330117" lat="13.999322">
                <ele>84.400000</ele>
                <time>2018-09-30T03:35:18Z</time>
            </trkpt>
            <trkpt lon="99.330137" lat="13.999281">
                <ele>84.000000</ele>
                <time>2018-09-30T03:35:19Z</time>
            </trkpt>
            <trkpt lon="99.330118" lat="13.999198">
                <ele>83.400000</ele>
                <time>2018-09-30T03:35:21Z</time>
            </trkpt>
            <trkpt lon="99.330094" lat="13.999083">
                <ele>82.800000</ele>
                <time>2018-09-30T03:35:24Z</time>
            </trkpt>
            <trkpt lon="99.330086" lat="13.999065">
                <ele>82.600000</ele>
                <time>2018-09-30T03:35:25Z</time>
            </trkpt>
            <trkpt lon="99.330071" lat="13.999045">
                <ele>82.400000</ele>
                <time>2018-09-30T03:35:26Z</time>
            </trkpt>
            <trkpt lon="99.329976" lat="13.999014">
                <ele>81.000000</ele>
                <time>2018-09-30T03:35:29Z</time>
            </trkpt>
            <trkpt lon="99.329835" lat="13.999026">
                <ele>80.600000</ele>
                <time>2018-09-30T03:35:32Z</time>
            </trkpt>
            <trkpt lon="99.329555" lat="13.999026">
                <ele>80.000000</ele>
                <time>2018-09-30T03:35:37Z</time>
            </trkpt>
            <trkpt lon="99.329499" lat="13.999021">
                <ele>80.000000</ele>
                <time>2018-09-30T03:35:38Z</time>
            </trkpt>
            <trkpt lon="99.329446" lat="13.999013">
                <ele>79.800000</ele>
                <time>2018-09-30T03:35:39Z</time>
            </trkpt>
            <trkpt lon="99.329391" lat="13.999017">
                <ele>79.800000</ele>
                <time>2018-09-30T03:35:40Z</time>
            </trkpt>
            <trkpt lon="99.329075" lat="13.999049">
                <ele>79.400000</ele>
                <time>2018-09-30T03:35:46Z</time>
            </trkpt>
            <trkpt lon="99.328722" lat="13.999042">
                <ele>79.400000</ele>
                <time>2018-09-30T03:35:54Z</time>
            </trkpt>
            <trkpt lon="99.328585" lat="13.999063">
                <ele>79.400000</ele>
                <time>2018-09-30T03:35:57Z</time>
            </trkpt>
            <trkpt lon="99.328495" lat="13.999108">
                <ele>79.400000</ele>
                <time>2018-09-30T03:35:59Z</time>
            </trkpt>
            <trkpt lon="99.328270" lat="13.999104">
                <ele>79.000000</ele>
                <time>2018-09-30T03:36:05Z</time>
            </trkpt>
            <trkpt lon="99.328150" lat="13.998990">
                <ele>78.200000</ele>
                <time>2018-09-30T03:36:11Z</time>
            </trkpt>
            <trkpt lon="99.328038" lat="13.998971">
                <ele>77.800000</ele>
                <time>2018-09-30T03:36:14Z</time>
            </trkpt>
            <trkpt lon="99.327818" lat="13.998945">
                <ele>77.200000</ele>
                <time>2018-09-30T03:36:19Z</time>
            </trkpt>
            <trkpt lon="99.327768" lat="13.998932">
                <ele>77.000000</ele>
                <time>2018-09-30T03:36:20Z</time>
            </trkpt>
            <trkpt lon="99.327715" lat="13.998928">
                <ele>77.000000</ele>
                <time>2018-09-30T03:36:21Z</time>
            </trkpt>
            <trkpt lon="99.327510" lat="13.998930">
                <ele>76.200000</ele>
                <time>2018-09-30T03:36:25Z</time>
            </trkpt>
            <trkpt lon="99.327404" lat="13.998943">
                <ele>75.800000</ele>
                <time>2018-09-30T03:36:27Z</time>
            </trkpt>
            <trkpt lon="99.327184" lat="13.998910">
                <ele>74.600000</ele>
                <time>2018-09-30T03:36:31Z</time>
            </trkpt>
            <trkpt lon="99.327022" lat="13.998890">
                <ele>73.800000</ele>
                <time>2018-09-30T03:36:35Z</time>
            </trkpt>
            <trkpt lon="99.326980" lat="13.998903">
                <ele>73.400000</ele>
                <time>2018-09-30T03:36:36Z</time>
            </trkpt>
            <trkpt lon="99.326749" lat="13.998992">
                <ele>72.400000</ele>
                <time>2018-09-30T03:36:43Z</time>
            </trkpt>
            <trkpt lon="99.326212" lat="13.999144">
                <ele>73.200000</ele>
                <time>2018-09-30T03:37:05Z</time>
            </trkpt>
            <trkpt lon="99.326122" lat="13.999106">
                <ele>73.400000</ele>
                <time>2018-09-30T03:37:11Z</time>
            </trkpt>
            <trkpt lon="99.326113" lat="13.999106">
                <ele>73.400000</ele>
                <time>2018-09-30T03:37:12Z</time>
            </trkpt>
            <trkpt lon="99.326096" lat="13.999115">
                <ele>73.400000</ele>
                <time>2018-09-30T03:37:14Z</time>
            </trkpt>
            <trkpt lon="99.326064" lat="13.999108">
                <ele>73.400000</ele>
                <time>2018-09-30T03:37:16Z</time>
            </trkpt>
            <trkpt lon="99.326035" lat="13.999105">
                <ele>73.400000</ele>
                <time>2018-09-30T03:37:19Z</time>
            </trkpt>
            <trkpt lon="99.325950" lat="13.999162">
                <ele>72.800000</ele>
                <time>2018-09-30T03:37:26Z</time>
            </trkpt>
            <trkpt lon="99.325824" lat="13.999237">
                <ele>72.800000</ele>
                <time>2018-09-30T03:37:33Z</time>
            </trkpt>
            <trkpt lon="99.325760" lat="13.999350">
                <ele>72.600000</ele>
                <time>2018-09-30T03:37:39Z</time>
            </trkpt>
            <trkpt lon="99.325340" lat="13.999717">
                <ele>72.600000</ele>
                <time>2018-09-30T03:37:59Z</time>
            </trkpt>
            <trkpt lon="99.324920" lat="14.000036">
                <ele>73.200000</ele>
                <time>2018-09-30T03:38:18Z</time>
            </trkpt>
            <trkpt lon="99.324654" lat="14.000093">
                <ele>72.600000</ele>
                <time>2018-09-30T03:38:28Z</time>
            </trkpt>
            <trkpt lon="99.324590" lat="14.000157">
                <ele>72.600000</ele>
                <time>2018-09-30T03:38:32Z</time>
            </trkpt>
            <trkpt lon="99.324289" lat="14.000389">
                <ele>73.200000</ele>
                <time>2018-09-30T03:38:50Z</time>
            </trkpt>
            <trkpt lon="99.324270" lat="14.000421">
                <ele>73.200000</ele>
                <time>2018-09-30T03:38:52Z</time>
            </trkpt>
            <trkpt lon="99.324131" lat="14.000500">
                <ele>73.600000</ele>
                <time>2018-09-30T03:38:59Z</time>
            </trkpt>
            <trkpt lon="99.324053" lat="14.000516">
                <ele>73.800000</ele>
                <time>2018-09-30T03:39:02Z</time>
            </trkpt>
            <trkpt lon="99.323919" lat="14.000366">
                <ele>73.800000</ele>
                <time>2018-09-30T03:39:08Z</time>
            </trkpt>
            <trkpt lon="99.323817" lat="13.999911">
                <ele>72.200000</ele>
                <time>2018-09-30T03:39:16Z</time>
            </trkpt>
            <trkpt lon="99.323771" lat="13.999704">
                <ele>70.800000</ele>
                <time>2018-09-30T03:39:19Z</time>
            </trkpt>
            <trkpt lon="99.323730" lat="13.999481">
                <ele>69.600000</ele>
                <time>2018-09-30T03:39:22Z</time>
            </trkpt>
            <trkpt lon="99.323676" lat="13.999250">
                <ele>68.400000</ele>
                <time>2018-09-30T03:39:25Z</time>
            </trkpt>
            <trkpt lon="99.323608" lat="13.998947">
                <ele>67.200000</ele>
                <time>2018-09-30T03:39:29Z</time>
            </trkpt>
            <trkpt lon="99.323558" lat="13.998725">
                <ele>66.000000</ele>
                <time>2018-09-30T03:39:32Z</time>
            </trkpt>
            <trkpt lon="99.323542" lat="13.998650">
                <ele>65.600000</ele>
                <time>2018-09-30T03:39:33Z</time>
            </trkpt>
            <trkpt lon="99.323494" lat="13.998434">
                <ele>64.600000</ele>
                <time>2018-09-30T03:39:36Z</time>
            </trkpt>
            <trkpt lon="99.323403" lat="13.998125">
                <ele>63.800000</ele>
                <time>2018-09-30T03:39:41Z</time>
            </trkpt>
            <trkpt lon="99.323376" lat="13.998004">
                <ele>63.600000</ele>
                <time>2018-09-30T03:39:43Z</time>
            </trkpt>
            <trkpt lon="99.323322" lat="13.997722">
                <ele>62.600000</ele>
                <time>2018-09-30T03:39:48Z</time>
            </trkpt>
            <trkpt lon="99.323241" lat="13.997378">
                <ele>61.600000</ele>
                <time>2018-09-30T03:39:54Z</time>
            </trkpt>
            <trkpt lon="99.323158" lat="13.997081">
                <ele>60.400000</ele>
                <time>2018-09-30T03:39:59Z</time>
            </trkpt>
            <trkpt lon="99.323102" lat="13.996848">
                <ele>60.000000</ele>
                <time>2018-09-30T03:40:03Z</time>
            </trkpt>
            <trkpt lon="99.323012" lat="13.996782">
                <ele>59.200000</ele>
                <time>2018-09-30T03:40:06Z</time>
            </trkpt>
            <trkpt lon="99.322871" lat="13.996843">
                <ele>59.000000</ele>
                <time>2018-09-30T03:40:11Z</time>
            </trkpt>
            <trkpt lon="99.322429" lat="13.997133">
                <ele>59.400000</ele>
                <time>2018-09-30T03:40:26Z</time>
            </trkpt>
            <trkpt lon="99.322053" lat="13.997507">
                <ele>59.800000</ele>
                <time>2018-09-30T03:40:42Z</time>
            </trkpt>
            <trkpt lon="99.322044" lat="13.997497">
                <ele>59.800000</ele>
                <time>2018-09-30T03:40:45Z</time>
            </trkpt>
            <trkpt lon="99.322054" lat="13.997489">
                <ele>59.800000</ele>
                <time>2018-09-30T03:40:47Z</time>
            </trkpt>
            <trkpt lon="99.322139" lat="13.997406">
                <ele>59.600000</ele>
                <time>2018-09-30T03:40:53Z</time>
            </trkpt>
            <trkpt lon="99.322194" lat="13.997349">
                <ele>59.600000</ele>
                <time>2018-09-30T03:40:58Z</time>
            </trkpt>
            <trkpt lon="99.322423" lat="13.997151">
                <ele>60.400000</ele>
                <time>2018-09-30T03:41:09Z</time>
            </trkpt>
            <trkpt lon="99.322897" lat="13.996843">
                <ele>60.200000</ele>
                <time>2018-09-30T03:41:24Z</time>
            </trkpt>
            <trkpt lon="99.323196" lat="13.996686">
                <ele>59.600000</ele>
                <time>2018-09-30T03:41:32Z</time>
            </trkpt>
            <trkpt lon="99.323283" lat="13.996639">
                <ele>59.400000</ele>
                <time>2018-09-30T03:41:34Z</time>
            </trkpt>
            <trkpt lon="99.323331" lat="13.996616">
                <ele>59.400000</ele>
                <time>2018-09-30T03:41:35Z</time>
            </trkpt>
            <trkpt lon="99.323656" lat="13.996503">
                <ele>58.600000</ele>
                <time>2018-09-30T03:41:41Z</time>
            </trkpt>
            <trkpt lon="99.323716" lat="13.996493">
                <ele>58.400000</ele>
                <time>2018-09-30T03:41:42Z</time>
            </trkpt>
            <trkpt lon="99.323941" lat="13.996465">
                <ele>57.600000</ele>
                <time>2018-09-30T03:41:46Z</time>
            </trkpt>
            <trkpt lon="99.324038" lat="13.996442">
                <ele>57.400000</ele>
                <time>2018-09-30T03:41:48Z</time>
            </trkpt>
            <trkpt lon="99.324470" lat="13.996376">
                <ele>57.800000</ele>
                <time>2018-09-30T03:42:00Z</time>
            </trkpt>
            <trkpt lon="99.324543" lat="13.996373">
                <ele>58.400000</ele>
                <time>2018-09-30T03:42:02Z</time>
            </trkpt>
            <trkpt lon="99.324596" lat="13.996347">
                <ele>58.600000</ele>
                <time>2018-09-30T03:42:04Z</time>
            </trkpt>
            <trkpt lon="99.324678" lat="13.996181">
                <ele>59.400000</ele>
                <time>2018-09-30T03:42:10Z</time>
            </trkpt>
            <trkpt lon="99.324730" lat="13.996089">
                <ele>60.400000</ele>
                <time>2018-09-30T03:42:13Z</time>
            </trkpt>
            <trkpt lon="99.325029" lat="13.995611">
                <ele>61.000000</ele>
                <time>2018-09-30T03:42:29Z</time>
            </trkpt>
            <trkpt lon="99.325377" lat="13.995166">
                <ele>60.600000</ele>
                <time>2018-09-30T03:42:45Z</time>
            </trkpt>
            <trkpt lon="99.325801" lat="13.994836">
                <ele>60.800000</ele>
                <time>2018-09-30T03:43:01Z</time>
            </trkpt>
            <trkpt lon="99.326294" lat="13.994605">
                <ele>61.000000</ele>
                <time>2018-09-30T03:43:16Z</time>
            </trkpt>
            <trkpt lon="99.326827" lat="13.994476">
                <ele>61.200000</ele>
                <time>2018-09-30T03:43:32Z</time>
            </trkpt>
            <trkpt lon="99.326993" lat="13.994460">
                <ele>61.600000</ele>
                <time>2018-09-30T03:43:37Z</time>
            </trkpt>
            <trkpt lon="99.327226" lat="13.994426">
                <ele>61.800000</ele>
                <time>2018-09-30T03:43:45Z</time>
            </trkpt>
            <trkpt lon="99.327236" lat="13.994398">
                <ele>61.800000</ele>
                <time>2018-09-30T03:43:47Z</time>
            </trkpt>
            <trkpt lon="99.327344" lat="13.994409">
                <ele>62.400000</ele>
                <time>2018-09-30T03:44:17Z</time>
            </trkpt>
            <trkpt lon="99.327352" lat="13.994421">
                <ele>62.400000</ele>
                <time>2018-09-30T03:44:18Z</time>
            </trkpt>
            <trkpt lon="99.327419" lat="13.994434">
                <ele>62.600000</ele>
                <time>2018-09-30T03:44:25Z</time>
            </trkpt>
            <trkpt lon="99.327510" lat="13.994433">
                <ele>62.400000</ele>
                <time>2018-09-30T03:44:31Z</time>
            </trkpt>
            <trkpt lon="99.327569" lat="13.994422">
                <ele>62.400000</ele>
                <time>2018-09-30T03:44:35Z</time>
            </trkpt>
            <trkpt lon="99.327581" lat="13.994422">
                <ele>62.600000</ele>
                <time>2018-09-30T03:44:36Z</time>
            </trkpt>
            <trkpt lon="99.327597" lat="13.994416">
                <ele>62.400000</ele>
                <time>2018-09-30T03:44:38Z</time>
            </trkpt>
            <trkpt lon="99.327613" lat="13.994402">
                <ele>62.600000</ele>
                <time>2018-09-30T03:44:40Z</time>
            </trkpt>
            <trkpt lon="99.327655" lat="13.994354">
                <ele>62.600000</ele>
                <time>2018-09-30T03:45:29Z</time>
            </trkpt>
            <trkpt lon="99.327672" lat="13.994325">
                <ele>62.600000</ele>
                <time>2018-09-30T03:45:31Z</time>
            </trkpt>
            <trkpt lon="99.327605" lat="13.994254">
                <ele>62.400000</ele>
                <time>2018-09-30T03:45:36Z</time>
            </trkpt>
            <trkpt lon="99.327488" lat="13.994239">
                <ele>61.400000</ele>
                <time>2018-09-30T03:45:42Z</time>
            </trkpt>
            <trkpt lon="99.327183" lat="13.994258">
                <ele>60.400000</ele>
                <time>2018-09-30T03:45:53Z</time>
            </trkpt>
            <trkpt lon="99.327147" lat="13.994238">
                <ele>60.200000</ele>
                <time>2018-09-30T03:45:55Z</time>
            </trkpt>
            <trkpt lon="99.327005" lat="13.994113">
                <ele>60.000000</ele>
                <time>2018-09-30T03:46:03Z</time>
            </trkpt>
            <trkpt lon="99.326849" lat="13.994047">
                <ele>59.600000</ele>
                <time>2018-09-30T03:46:08Z</time>
            </trkpt>
            <trkpt lon="99.326812" lat="13.994036">
                <ele>59.600000</ele>
                <time>2018-09-30T03:46:09Z</time>
            </trkpt>
            <trkpt lon="99.326664" lat="13.993978">
                <ele>59.000000</ele>
                <time>2018-09-30T03:46:13Z</time>
            </trkpt>
            <trkpt lon="99.326532" lat="13.993910">
                <ele>58.600000</ele>
                <time>2018-09-30T03:46:17Z</time>
            </trkpt>
            <trkpt lon="99.326324" lat="13.993889">
                <ele>58.000000</ele>
                <time>2018-09-30T03:46:23Z</time>
            </trkpt>
            <trkpt lon="99.326198" lat="13.993711">
                <ele>57.400000</ele>
                <time>2018-09-30T03:46:31Z</time>
            </trkpt>
            <trkpt lon="99.326229" lat="13.993648">
                <ele>57.400000</ele>
                <time>2018-09-30T03:46:33Z</time>
            </trkpt>
            <trkpt lon="99.326240" lat="13.993615">
                <ele>57.400000</ele>
                <time>2018-09-30T03:46:34Z</time>
            </trkpt>
            <trkpt lon="99.326089" lat="13.993165">
                <ele>56.800000</ele>
                <time>2018-09-30T03:46:48Z</time>
            </trkpt>
            <trkpt lon="99.325973" lat="13.992864">
                <ele>56.400000</ele>
                <time>2018-09-30T03:46:57Z</time>
            </trkpt>
            <trkpt lon="99.326011" lat="13.992489">
                <ele>55.800000</ele>
                <time>2018-09-30T03:47:11Z</time>
            </trkpt>
            <trkpt lon="99.326012" lat="13.992482">
                <ele>55.800000</ele>
                <time>2018-09-30T03:47:14Z</time>
            </trkpt>
            <trkpt lon="99.325980" lat="13.992358">
                <ele>55.800000</ele>
                <time>2018-09-30T03:47:21Z</time>
            </trkpt>
            <trkpt lon="99.325939" lat="13.992056">
                <ele>55.600000</ele>
                <time>2018-09-30T03:47:34Z</time>
            </trkpt>
            <trkpt lon="99.325823" lat="13.991818">
                <ele>55.400000</ele>
                <time>2018-09-30T03:47:50Z</time>
            </trkpt>
            <trkpt lon="99.325766" lat="13.991670">
                <ele>55.000000</ele>
                <time>2018-09-30T03:47:57Z</time>
            </trkpt>
            <trkpt lon="99.325770" lat="13.991518">
                <ele>54.800000</ele>
                <time>2018-09-30T03:48:05Z</time>
            </trkpt>
            <trkpt lon="99.325695" lat="13.991414">
                <ele>54.600000</ele>
                <time>2018-09-30T03:48:10Z</time>
            </trkpt>
            <trkpt lon="99.325620" lat="13.991242">
                <ele>54.200000</ele>
                <time>2018-09-30T03:48:19Z</time>
            </trkpt>
            <trkpt lon="99.325608" lat="13.991211">
                <ele>54.200000</ele>
                <time>2018-09-30T03:48:21Z</time>
            </trkpt>
            <trkpt lon="99.325595" lat="13.991199">
                <ele>54.000000</ele>
                <time>2018-09-30T03:48:23Z</time>
            </trkpt>
            <trkpt lon="99.325567" lat="13.991144">
                <ele>53.800000</ele>
                <time>2018-09-30T03:48:30Z</time>
            </trkpt>
            <trkpt lon="99.325544" lat="13.991032">
                <ele>53.800000</ele>
                <time>2018-09-30T03:48:35Z</time>
            </trkpt>
            <trkpt lon="99.325410" lat="13.990724">
                <ele>53.400000</ele>
                <time>2018-09-30T03:48:47Z</time>
            </trkpt>
            <trkpt lon="99.325235" lat="13.990599">
                <ele>53.200000</ele>
                <time>2018-09-30T03:48:57Z</time>
            </trkpt>
            <trkpt lon="99.324950" lat="13.990305">
                <ele>53.000000</ele>
                <time>2018-09-30T03:49:11Z</time>
            </trkpt>
            <trkpt lon="99.324934" lat="13.990203">
                <ele>52.600000</ele>
                <time>2018-09-30T03:49:15Z</time>
            </trkpt>
            <trkpt lon="99.324959" lat="13.990095">
                <ele>52.600000</ele>
                <time>2018-09-30T03:49:21Z</time>
            </trkpt>
            <trkpt lon="99.324959" lat="13.990072">
                <ele>52.400000</ele>
                <time>2018-09-30T03:49:28Z</time>
            </trkpt>
            <trkpt lon="99.324961" lat="13.990060">
                <ele>52.200000</ele>
                <time>2018-09-30T03:49:30Z</time>
            </trkpt>
            <trkpt lon="99.324988" lat="13.989932">
                <ele>50.600000</ele>
                <time>2018-09-30T03:50:11Z</time>
            </trkpt>
            <trkpt lon="99.324987" lat="13.989926">
                <ele>50.600000</ele>
                <time>2018-09-30T03:50:12Z</time>
            </trkpt>
            <trkpt lon="99.324965" lat="13.989910">
                <ele>51.200000</ele>
                <time>2018-09-30T03:50:19Z</time>
            </trkpt>
            <trkpt lon="99.324960" lat="13.989908">
                <ele>51.400000</ele>
                <time>2018-09-30T03:50:20Z</time>
            </trkpt>
            <trkpt lon="99.324953" lat="13.989894">
                <ele>51.400000</ele>
                <time>2018-09-30T03:50:22Z</time>
            </trkpt>
            <trkpt lon="99.324952" lat="13.989883">
                <ele>51.400000</ele>
                <time>2018-09-30T03:50:23Z</time>
            </trkpt>
            <trkpt lon="99.324955" lat="13.989862">
                <ele>51.400000</ele>
                <time>2018-09-30T03:50:25Z</time>
            </trkpt>
            <trkpt lon="99.324945" lat="13.989840">
                <ele>51.400000</ele>
                <time>2018-09-30T03:50:28Z</time>
            </trkpt>
            <trkpt lon="99.324898" lat="13.989785">
                <ele>51.400000</ele>
                <time>2018-09-30T03:50:36Z</time>
            </trkpt>
            <trkpt lon="99.324894" lat="13.989773">
                <ele>51.600000</ele>
                <time>2018-09-30T03:50:38Z</time>
            </trkpt>
            <trkpt lon="99.324880" lat="13.989738">
                <ele>52.000000</ele>
                <time>2018-09-30T03:50:42Z</time>
            </trkpt>
            <trkpt lon="99.324876" lat="13.989728">
                <ele>52.000000</ele>
                <time>2018-09-30T03:50:43Z</time>
            </trkpt>
            <trkpt lon="99.324873" lat="13.989719">
                <ele>52.000000</ele>
                <time>2018-09-30T03:50:44Z</time>
            </trkpt>
            <trkpt lon="99.324862" lat="13.989702">
                <ele>52.200000</ele>
                <time>2018-09-30T03:50:46Z</time>
            </trkpt>
            <trkpt lon="99.324816" lat="13.989605">
                <ele>52.200000</ele>
                <time>2018-09-30T03:50:52Z</time>
            </trkpt>
            <trkpt lon="99.324795" lat="13.989505">
                <ele>52.200000</ele>
                <time>2018-09-30T03:50:57Z</time>
            </trkpt>
            <trkpt lon="99.324751" lat="13.989437">
                <ele>52.400000</ele>
                <time>2018-09-30T03:51:01Z</time>
            </trkpt>
            <trkpt lon="99.324692" lat="13.989326">
                <ele>52.600000</ele>
                <time>2018-09-30T03:51:07Z</time>
            </trkpt>
            <trkpt lon="99.324659" lat="13.989269">
                <ele>52.600000</ele>
                <time>2018-09-30T03:51:11Z</time>
            </trkpt>
            <trkpt lon="99.324631" lat="13.989206">
                <ele>52.800000</ele>
                <time>2018-09-30T03:51:15Z</time>
            </trkpt>
            <trkpt lon="99.324608" lat="13.989175">
                <ele>53.000000</ele>
                <time>2018-09-30T03:51:17Z</time>
            </trkpt>
            <trkpt lon="99.324600" lat="13.989008">
                <ele>53.400000</ele>
                <time>2018-09-30T03:51:25Z</time>
            </trkpt>
            <trkpt lon="99.324526" lat="13.988786">
                <ele>54.200000</ele>
                <time>2018-09-30T03:51:37Z</time>
            </trkpt>
            <trkpt lon="99.324467" lat="13.988626">
                <ele>54.400000</ele>
                <time>2018-09-30T03:51:46Z</time>
            </trkpt>
            <trkpt lon="99.324454" lat="13.988443">
                <ele>54.600000</ele>
                <time>2018-09-30T03:51:56Z</time>
            </trkpt>
            <trkpt lon="99.324493" lat="13.988351">
                <ele>54.800000</ele>
                <time>2018-09-30T03:52:01Z</time>
            </trkpt>
            <trkpt lon="99.324482" lat="13.988235">
                <ele>55.000000</ele>
                <time>2018-09-30T03:52:07Z</time>
            </trkpt>
            <trkpt lon="99.324641" lat="13.987741">
                <ele>54.800000</ele>
                <time>2018-09-30T03:52:28Z</time>
            </trkpt>
            <trkpt lon="99.325146" lat="13.987459">
                <ele>54.800000</ele>
                <time>2018-09-30T03:52:45Z</time>
            </trkpt>
            <trkpt lon="99.325602" lat="13.987153">
                <ele>54.600000</ele>
                <time>2018-09-30T03:53:00Z</time>
            </trkpt>
            <trkpt lon="99.326068" lat="13.986848">
                <ele>55.000000</ele>
                <time>2018-09-30T03:53:16Z</time>
            </trkpt>
            <trkpt lon="99.326237" lat="13.986738">
                <ele>55.000000</ele>
                <time>2018-09-30T03:53:22Z</time>
            </trkpt>
            <trkpt lon="99.326285" lat="13.986513">
                <ele>54.800000</ele>
                <time>2018-09-30T03:53:28Z</time>
            </trkpt>
            <trkpt lon="99.326292" lat="13.986299">
                <ele>54.400000</ele>
                <time>2018-09-30T03:53:33Z</time>
            </trkpt>
            <trkpt lon="99.326338" lat="13.986151">
                <ele>54.000000</ele>
                <time>2018-09-30T03:53:37Z</time>
            </trkpt>
            <trkpt lon="99.326338" lat="13.985959">
                <ele>53.800000</ele>
                <time>2018-09-30T03:53:43Z</time>
            </trkpt>
            <trkpt lon="99.326337" lat="13.985415">
                <ele>54.000000</ele>
                <time>2018-09-30T03:54:00Z</time>
            </trkpt>
            <trkpt lon="99.326434" lat="13.984903">
                <ele>54.400000</ele>
                <time>2018-09-30T03:54:17Z</time>
            </trkpt>
            <trkpt lon="99.326599" lat="13.984399">
                <ele>54.000000</ele>
                <time>2018-09-30T03:54:33Z</time>
            </trkpt>
            <trkpt lon="99.326940" lat="13.983955">
                <ele>54.000000</ele>
                <time>2018-09-30T03:54:49Z</time>
            </trkpt>
            <trkpt lon="99.327292" lat="13.983527">
                <ele>54.800000</ele>
                <time>2018-09-30T03:55:06Z</time>
            </trkpt>
            <trkpt lon="99.327704" lat="13.983219">
                <ele>55.200000</ele>
                <time>2018-09-30T03:55:30Z</time>
            </trkpt>
            <trkpt lon="99.328109" lat="13.983583">
                <ele>55.600000</ele>
                <time>2018-09-30T03:55:51Z</time>
            </trkpt>
            <trkpt lon="99.328145" lat="13.983671">
                <ele>55.600000</ele>
                <time>2018-09-30T03:55:57Z</time>
            </trkpt>
            <trkpt lon="99.328138" lat="13.983685">
                <ele>55.600000</ele>
                <time>2018-09-30T03:55:59Z</time>
            </trkpt>
            <trkpt lon="99.328177" lat="13.983655">
                <ele>56.200000</ele>
                <time>2018-09-30T04:15:39Z</time>
            </trkpt>
            <trkpt lon="99.328184" lat="13.983618">
                <ele>56.200000</ele>
                <time>2018-09-30T04:15:41Z</time>
            </trkpt>
            <trkpt lon="99.328136" lat="13.983557">
                <ele>56.400000</ele>
                <time>2018-09-30T04:15:45Z</time>
            </trkpt>
            <trkpt lon="99.328032" lat="13.983349">
                <ele>56.200000</ele>
                <time>2018-09-30T04:15:53Z</time>
            </trkpt>
            <trkpt lon="99.327943" lat="13.983191">
                <ele>56.200000</ele>
                <time>2018-09-30T04:15:57Z</time>
            </trkpt>
            <trkpt lon="99.327763" lat="13.983020">
                <ele>56.200000</ele>
                <time>2018-09-30T04:16:02Z</time>
            </trkpt>
            <trkpt lon="99.327739" lat="13.982764">
                <ele>55.600000</ele>
                <time>2018-09-30T04:16:08Z</time>
            </trkpt>
            <trkpt lon="99.327798" lat="13.982644">
                <ele>55.400000</ele>
                <time>2018-09-30T04:16:11Z</time>
            </trkpt>
            <trkpt lon="99.328053" lat="13.982149">
                <ele>55.600000</ele>
                <time>2018-09-30T04:16:24Z</time>
            </trkpt>
            <trkpt lon="99.328321" lat="13.981696">
                <ele>55.200000</ele>
                <time>2018-09-30T04:16:35Z</time>
            </trkpt>
            <trkpt lon="99.328618" lat="13.981210">
                <ele>55.000000</ele>
                <time>2018-09-30T04:16:47Z</time>
            </trkpt>
            <trkpt lon="99.328896" lat="13.980730">
                <ele>54.800000</ele>
                <time>2018-09-30T04:17:00Z</time>
            </trkpt>
            <trkpt lon="99.328949" lat="13.980545">
                <ele>54.800000</ele>
                <time>2018-09-30T04:17:05Z</time>
            </trkpt>
            <trkpt lon="99.328828" lat="13.980371">
                <ele>54.800000</ele>
                <time>2018-09-30T04:17:10Z</time>
            </trkpt>
            <trkpt lon="99.328359" lat="13.980130">
                <ele>54.200000</ele>
                <time>2018-09-30T04:17:20Z</time>
            </trkpt>
            <trkpt lon="99.327850" lat="13.979926">
                <ele>53.600000</ele>
                <time>2018-09-30T04:17:30Z</time>
            </trkpt>
            <trkpt lon="99.327482" lat="13.979776">
                <ele>53.000000</ele>
                <time>2018-09-30T04:17:37Z</time>
            </trkpt>
            <trkpt lon="99.327087" lat="13.979556">
                <ele>52.400000</ele>
                <time>2018-09-30T04:17:45Z</time>
            </trkpt>
            <trkpt lon="99.326740" lat="13.979284">
                <ele>52.000000</ele>
                <time>2018-09-30T04:17:53Z</time>
            </trkpt>
            <trkpt lon="99.326700" lat="13.979246">
                <ele>52.000000</ele>
                <time>2018-09-30T04:17:54Z</time>
            </trkpt>
            <trkpt lon="99.326397" lat="13.978898">
                <ele>52.200000</ele>
                <time>2018-09-30T04:18:03Z</time>
            </trkpt>
            <trkpt lon="99.326704" lat="13.978475">
                <ele>52.800000</ele>
                <time>2018-09-30T04:18:16Z</time>
            </trkpt>
            <trkpt lon="99.326755" lat="13.978409">
                <ele>53.000000</ele>
                <time>2018-09-30T04:18:18Z</time>
            </trkpt>
            <trkpt lon="99.327071" lat="13.977975">
                <ele>53.000000</ele>
                <time>2018-09-30T04:18:30Z</time>
            </trkpt>
            <trkpt lon="99.327321" lat="13.977650">
                <ele>52.600000</ele>
                <time>2018-09-30T04:18:39Z</time>
            </trkpt>
            <trkpt lon="99.327710" lat="13.977273">
                <ele>52.600000</ele>
                <time>2018-09-30T04:18:51Z</time>
            </trkpt>
            <trkpt lon="99.327974" lat="13.977005">
                <ele>52.600000</ele>
                <time>2018-09-30T04:18:59Z</time>
            </trkpt>
            <trkpt lon="99.327997" lat="13.976969">
                <ele>52.600000</ele>
                <time>2018-09-30T04:19:00Z</time>
            </trkpt>
            <trkpt lon="99.328231" lat="13.976492">
                <ele>52.200000</ele>
                <time>2018-09-30T04:19:12Z</time>
            </trkpt>
            <trkpt lon="99.328293" lat="13.976272">
                <ele>51.400000</ele>
                <time>2018-09-30T04:19:17Z</time>
            </trkpt>
            <trkpt lon="99.328280" lat="13.976084">
                <ele>51.000000</ele>
                <time>2018-09-30T04:19:21Z</time>
            </trkpt>
            <trkpt lon="99.328288" lat="13.975979">
                <ele>50.800000</ele>
                <time>2018-09-30T04:19:23Z</time>
            </trkpt>
            <trkpt lon="99.328291" lat="13.975931">
                <ele>50.600000</ele>
                <time>2018-09-30T04:19:24Z</time>
            </trkpt>
            <trkpt lon="99.328239" lat="13.975776">
                <ele>50.000000</ele>
                <time>2018-09-30T04:19:28Z</time>
            </trkpt>
            <trkpt lon="99.328199" lat="13.975697">
                <ele>49.400000</ele>
                <time>2018-09-30T04:19:30Z</time>
            </trkpt>
            <trkpt lon="99.328088" lat="13.975567">
                <ele>49.200000</ele>
                <time>2018-09-30T04:19:34Z</time>
            </trkpt>
            <trkpt lon="99.328020" lat="13.975503">
                <ele>49.000000</ele>
                <time>2018-09-30T04:19:36Z</time>
            </trkpt>
            <trkpt lon="99.327680" lat="13.975128">
                <ele>49.200000</ele>
                <time>2018-09-30T04:19:51Z</time>
            </trkpt>
            <trkpt lon="99.327597" lat="13.974978">
                <ele>49.000000</ele>
                <time>2018-09-30T04:19:54Z</time>
            </trkpt>
            <trkpt lon="99.327496" lat="13.974828">
                <ele>49.000000</ele>
                <time>2018-09-30T04:19:57Z</time>
            </trkpt>
            <trkpt lon="99.327438" lat="13.974643">
                <ele>47.600000</ele>
                <time>2018-09-30T04:20:01Z</time>
            </trkpt>
            <trkpt lon="99.327359" lat="13.974107">
                <ele>48.600000</ele>
                <time>2018-09-30T04:20:17Z</time>
            </trkpt>
            <trkpt lon="99.327539" lat="13.973606">
                <ele>48.000000</ele>
                <time>2018-09-30T04:20:30Z</time>
            </trkpt>
            <trkpt lon="99.327707" lat="13.973260">
                <ele>47.800000</ele>
                <time>2018-09-30T04:20:40Z</time>
            </trkpt>
            <trkpt lon="99.327780" lat="13.973168">
                <ele>47.800000</ele>
                <time>2018-09-30T04:20:43Z</time>
            </trkpt>
            <trkpt lon="99.327947" lat="13.972998">
                <ele>48.200000</ele>
                <time>2018-09-30T04:20:49Z</time>
            </trkpt>
            <trkpt lon="99.327958" lat="13.972869">
                <ele>48.000000</ele>
                <time>2018-09-30T04:20:53Z</time>
            </trkpt>
            <trkpt lon="99.327833" lat="13.972791">
                <ele>48.200000</ele>
                <time>2018-09-30T04:20:58Z</time>
            </trkpt>
            <trkpt lon="99.327512" lat="13.972616">
                <ele>48.800000</ele>
                <time>2018-09-30T04:21:12Z</time>
            </trkpt>
            <trkpt lon="99.327042" lat="13.972325">
                <ele>48.600000</ele>
                <time>2018-09-30T04:21:28Z</time>
            </trkpt>
            <trkpt lon="99.326538" lat="13.972071">
                <ele>49.400000</ele>
                <time>2018-09-30T04:21:46Z</time>
            </trkpt>
            <trkpt lon="99.326248" lat="13.971881">
                <ele>50.000000</ele>
                <time>2018-09-30T04:21:59Z</time>
            </trkpt>
            <trkpt lon="99.325852" lat="13.971484">
                <ele>50.600000</ele>
                <time>2018-09-30T04:22:15Z</time>
            </trkpt>
            <trkpt lon="99.325473" lat="13.971180">
                <ele>50.400000</ele>
                <time>2018-09-30T04:22:27Z</time>
            </trkpt>
            <trkpt lon="99.325172" lat="13.970787">
                <ele>49.800000</ele>
                <time>2018-09-30T04:22:41Z</time>
            </trkpt>
            <trkpt lon="99.325282" lat="13.970252">
                <ele>49.800000</ele>
                <time>2018-09-30T04:22:54Z</time>
            </trkpt>
            <trkpt lon="99.325234" lat="13.969678">
                <ele>49.000000</ele>
                <time>2018-09-30T04:23:07Z</time>
            </trkpt>
            <trkpt lon="99.325222" lat="13.969589">
                <ele>49.000000</ele>
                <time>2018-09-30T04:23:09Z</time>
            </trkpt>
            <trkpt lon="99.325217" lat="13.969133">
                <ele>47.800000</ele>
                <time>2018-09-30T04:23:19Z</time>
            </trkpt>
            <trkpt lon="99.325260" lat="13.968945">
                <ele>47.400000</ele>
                <time>2018-09-30T04:23:23Z</time>
            </trkpt>
            <trkpt lon="99.325391" lat="13.968622">
                <ele>46.800000</ele>
                <time>2018-09-30T04:23:30Z</time>
            </trkpt>
            <trkpt lon="99.325596" lat="13.968328">
                <ele>46.200000</ele>
                <time>2018-09-30T04:23:38Z</time>
            </trkpt>
            <trkpt lon="99.325982" lat="13.967949">
                <ele>46.400000</ele>
                <time>2018-09-30T04:23:51Z</time>
            </trkpt>
            <trkpt lon="99.326380" lat="13.967565">
                <ele>46.600000</ele>
                <time>2018-09-30T04:24:03Z</time>
            </trkpt>
            <trkpt lon="99.326774" lat="13.967179">
                <ele>46.400000</ele>
                <time>2018-09-30T04:24:15Z</time>
            </trkpt>
            <trkpt lon="99.326841" lat="13.967148">
                <ele>46.400000</ele>
                <time>2018-09-30T04:24:17Z</time>
            </trkpt>
            <trkpt lon="99.327276" lat="13.967443">
                <ele>46.600000</ele>
                <time>2018-09-30T04:24:30Z</time>
            </trkpt>
            <trkpt lon="99.327662" lat="13.967827">
                <ele>46.600000</ele>
                <time>2018-09-30T04:24:42Z</time>
            </trkpt>
            <trkpt lon="99.327862" lat="13.968088">
                <ele>46.600000</ele>
                <time>2018-09-30T04:24:49Z</time>
            </trkpt>
            <trkpt lon="99.328091" lat="13.968608">
                <ele>46.800000</ele>
                <time>2018-09-30T04:25:01Z</time>
            </trkpt>
            <trkpt lon="99.328151" lat="13.968791">
                <ele>46.600000</ele>
                <time>2018-09-30T04:25:05Z</time>
            </trkpt>
            <trkpt lon="99.328265" lat="13.968945">
                <ele>46.800000</ele>
                <time>2018-09-30T04:25:09Z</time>
            </trkpt>
            <trkpt lon="99.328396" lat="13.969089">
                <ele>46.800000</ele>
                <time>2018-09-30T04:25:13Z</time>
            </trkpt>
            <trkpt lon="99.328609" lat="13.969199">
                <ele>46.600000</ele>
                <time>2018-09-30T04:25:18Z</time>
            </trkpt>
            <trkpt lon="99.328941" lat="13.969253">
                <ele>46.600000</ele>
                <time>2018-09-30T04:25:25Z</time>
            </trkpt>
            <trkpt lon="99.329221" lat="13.969239">
                <ele>46.800000</ele>
                <time>2018-09-30T04:25:31Z</time>
            </trkpt>
            <trkpt lon="99.329787" lat="13.969147">
                <ele>47.000000</ele>
                <time>2018-09-30T04:25:43Z</time>
            </trkpt>
            <trkpt lon="99.329968" lat="13.969158">
                <ele>47.000000</ele>
                <time>2018-09-30T04:25:47Z</time>
            </trkpt>
            <trkpt lon="99.330491" lat="13.969346">
                <ele>47.200000</ele>
                <time>2018-09-30T04:25:59Z</time>
            </trkpt>
            <trkpt lon="99.330679" lat="13.969474">
                <ele>47.200000</ele>
                <time>2018-09-30T04:26:04Z</time>
            </trkpt>
            <trkpt lon="99.330940" lat="13.969682">
                <ele>48.200000</ele>
                <time>2018-09-30T04:26:16Z</time>
            </trkpt>
            <trkpt lon="99.330949" lat="13.969778">
                <ele>49.400000</ele>
                <time>2018-09-30T04:26:20Z</time>
            </trkpt>
            <trkpt lon="99.330948" lat="13.969872">
                <ele>50.600000</ele>
                <time>2018-09-30T04:26:24Z</time>
            </trkpt>
            <trkpt lon="99.331318" lat="13.970149">
                <ele>50.800000</ele>
                <time>2018-09-30T04:26:41Z</time>
            </trkpt>
            <trkpt lon="99.331865" lat="13.970167">
                <ele>50.800000</ele>
                <time>2018-09-30T04:26:56Z</time>
            </trkpt>
            <trkpt lon="99.332425" lat="13.970188">
                <ele>50.600000</ele>
                <time>2018-09-30T04:27:11Z</time>
            </trkpt>
            <trkpt lon="99.332452" lat="13.970199">
                <ele>50.600000</ele>
                <time>2018-09-30T04:27:12Z</time>
            </trkpt>
            <trkpt lon="99.332683" lat="13.970490">
                <ele>50.400000</ele>
                <time>2018-09-30T04:27:25Z</time>
            </trkpt>
            <trkpt lon="99.333085" lat="13.970805">
                <ele>50.400000</ele>
                <time>2018-09-30T04:27:40Z</time>
            </trkpt>
            <trkpt lon="99.333172" lat="13.970863">
                <ele>50.600000</ele>
                <time>2018-09-30T04:27:43Z</time>
            </trkpt>
            <trkpt lon="99.333611" lat="13.971058">
                <ele>51.000000</ele>
                <time>2018-09-30T04:27:55Z</time>
            </trkpt>
            <trkpt lon="99.334140" lat="13.971274">
                <ele>50.800000</ele>
                <time>2018-09-30T04:28:06Z</time>
            </trkpt>
            <trkpt lon="99.334653" lat="13.971499">
                <ele>51.000000</ele>
                <time>2018-09-30T04:28:17Z</time>
            </trkpt>
            <trkpt lon="99.334788" lat="13.971610">
                <ele>51.200000</ele>
                <time>2018-09-30T04:28:21Z</time>
            </trkpt>
            <trkpt lon="99.334870" lat="13.971713">
                <ele>51.200000</ele>
                <time>2018-09-30T04:28:24Z</time>
            </trkpt>
            <trkpt lon="99.335041" lat="13.972011">
                <ele>52.000000</ele>
                <time>2018-09-30T04:28:32Z</time>
            </trkpt>
            <trkpt lon="99.335092" lat="13.972208">
                <ele>52.000000</ele>
                <time>2018-09-30T04:28:37Z</time>
            </trkpt>
            <trkpt lon="99.335096" lat="13.972245">
                <ele>52.200000</ele>
                <time>2018-09-30T04:28:38Z</time>
            </trkpt>
            <trkpt lon="99.335067" lat="13.972364">
                <ele>52.600000</ele>
                <time>2018-09-30T04:28:41Z</time>
            </trkpt>
            <trkpt lon="99.335050" lat="13.972444">
                <ele>52.600000</ele>
                <time>2018-09-30T04:28:43Z</time>
            </trkpt>
            <trkpt lon="99.335048" lat="13.972610">
                <ele>53.000000</ele>
                <time>2018-09-30T04:28:47Z</time>
            </trkpt>
            <trkpt lon="99.335047" lat="13.972754">
                <ele>53.200000</ele>
                <time>2018-09-30T04:28:51Z</time>
            </trkpt>
            <trkpt lon="99.335044" lat="13.972788">
                <ele>53.200000</ele>
                <time>2018-09-30T04:28:52Z</time>
            </trkpt>
            <trkpt lon="99.335024" lat="13.973317">
                <ele>53.600000</ele>
                <time>2018-09-30T04:29:05Z</time>
            </trkpt>
            <trkpt lon="99.335043" lat="13.973445">
                <ele>53.600000</ele>
                <time>2018-09-30T04:29:08Z</time>
            </trkpt>
            <trkpt lon="99.335085" lat="13.973681">
                <ele>54.000000</ele>
                <time>2018-09-30T04:29:14Z</time>
            </trkpt>
            <trkpt lon="99.335164" lat="13.974170">
                <ele>54.600000</ele>
                <time>2018-09-30T04:29:25Z</time>
            </trkpt>
            <trkpt lon="99.335270" lat="13.974747">
                <ele>54.600000</ele>
                <time>2018-09-30T04:29:37Z</time>
            </trkpt>
            <trkpt lon="99.335305" lat="13.974942">
                <ele>54.600000</ele>
                <time>2018-09-30T04:29:41Z</time>
            </trkpt>
            <trkpt lon="99.335165" lat="13.975089">
                <ele>54.600000</ele>
                <time>2018-09-30T04:29:47Z</time>
            </trkpt>
            <trkpt lon="99.334639" lat="13.975224">
                <ele>54.600000</ele>
                <time>2018-09-30T04:30:01Z</time>
            </trkpt>
            <trkpt lon="99.334274" lat="13.975576">
                <ele>55.400000</ele>
                <time>2018-09-30T04:30:16Z</time>
            </trkpt>
            <trkpt lon="99.334058" lat="13.976052">
                <ele>55.200000</ele>
                <time>2018-09-30T04:30:33Z</time>
            </trkpt>
            <trkpt lon="99.333983" lat="13.976160">
                <ele>56.000000</ele>
                <time>2018-09-30T04:30:38Z</time>
            </trkpt>
            <trkpt lon="99.333906" lat="13.976216">
                <ele>56.200000</ele>
                <time>2018-09-30T04:30:42Z</time>
            </trkpt>
            <trkpt lon="99.333921" lat="13.976766">
                <ele>56.400000</ele>
                <time>2018-09-30T04:31:00Z</time>
            </trkpt>
            <trkpt lon="99.334096" lat="13.977280">
                <ele>56.400000</ele>
                <time>2018-09-30T04:31:18Z</time>
            </trkpt>
            <trkpt lon="99.333666" lat="13.977624">
                <ele>56.400000</ele>
                <time>2018-09-30T04:31:34Z</time>
            </trkpt>
            <trkpt lon="99.333606" lat="13.977711">
                <ele>56.400000</ele>
                <time>2018-09-30T04:31:37Z</time>
            </trkpt>
            <trkpt lon="99.333311" lat="13.978175">
                <ele>56.400000</ele>
                <time>2018-09-30T04:31:52Z</time>
            </trkpt>
            <trkpt lon="99.333122" lat="13.978651">
                <ele>56.000000</ele>
                <time>2018-09-30T04:32:06Z</time>
            </trkpt>
            <trkpt lon="99.333041" lat="13.979052">
                <ele>56.000000</ele>
                <time>2018-09-30T04:32:17Z</time>
            </trkpt>
            <trkpt lon="99.332953" lat="13.979061">
                <ele>56.000000</ele>
                <time>2018-09-30T04:32:21Z</time>
            </trkpt>
            <trkpt lon="99.332353" lat="13.979069">
                <ele>56.600000</ele>
                <time>2018-09-30T04:32:38Z</time>
            </trkpt>
            <trkpt lon="99.331783" lat="13.979057">
                <ele>56.600000</ele>
                <time>2018-09-30T04:32:51Z</time>
            </trkpt>
            <trkpt lon="99.331208" lat="13.979052">
                <ele>57.000000</ele>
                <time>2018-09-30T04:33:05Z</time>
            </trkpt>
            <trkpt lon="99.330666" lat="13.979047">
                <ele>57.200000</ele>
                <time>2018-09-30T04:33:18Z</time>
            </trkpt>
            <trkpt lon="99.330153" lat="13.979053">
                <ele>57.000000</ele>
                <time>2018-09-30T04:33:29Z</time>
            </trkpt>
            <trkpt lon="99.329968" lat="13.979094">
                <ele>56.800000</ele>
                <time>2018-09-30T04:33:33Z</time>
            </trkpt>
            <trkpt lon="99.329744" lat="13.979257">
                <ele>56.800000</ele>
                <time>2018-09-30T04:33:39Z</time>
            </trkpt>
            <trkpt lon="99.329454" lat="13.979709">
                <ele>57.200000</ele>
                <time>2018-09-30T04:33:50Z</time>
            </trkpt>
            <trkpt lon="99.329181" lat="13.980192">
                <ele>57.000000</ele>
                <time>2018-09-30T04:33:59Z</time>
            </trkpt>
            <trkpt lon="99.328879" lat="13.980687">
                <ele>56.800000</ele>
                <time>2018-09-30T04:34:09Z</time>
            </trkpt>
            <trkpt lon="99.328592" lat="13.981171">
                <ele>57.800000</ele>
                <time>2018-09-30T04:34:24Z</time>
            </trkpt>
            <trkpt lon="99.328385" lat="13.981494">
                <ele>58.400000</ele>
                <time>2018-09-30T04:34:44Z</time>
            </trkpt>
            <trkpt lon="99.328121" lat="13.981953">
                <ele>58.800000</ele>
                <time>2018-09-30T04:35:02Z</time>
            </trkpt>
            <trkpt lon="99.328101" lat="13.981989">
                <ele>58.800000</ele>
                <time>2018-09-30T04:35:03Z</time>
            </trkpt>
            <trkpt lon="99.327876" lat="13.982513">
                <ele>59.000000</ele>
                <time>2018-09-30T04:35:18Z</time>
            </trkpt>
            <trkpt lon="99.327718" lat="13.983001">
                <ele>59.000000</ele>
                <time>2018-09-30T04:35:35Z</time>
            </trkpt>
            <trkpt lon="99.327766" lat="13.983076">
                <ele>59.000000</ele>
                <time>2018-09-30T04:35:39Z</time>
            </trkpt>
            <trkpt lon="99.328081" lat="13.983517">
                <ele>59.600000</ele>
                <time>2018-09-30T04:36:00Z</time>
            </trkpt>
            <trkpt lon="99.328318" lat="13.983734">
                <ele>60.000000</ele>
                <time>2018-09-30T04:36:13Z</time>
            </trkpt>
            <trkpt lon="99.328725" lat="13.984120">
                <ele>60.400000</ele>
                <time>2018-09-30T04:36:27Z</time>
            </trkpt>
            <trkpt lon="99.329123" lat="13.984488">
                <ele>60.400000</ele>
                <time>2018-09-30T04:36:38Z</time>
            </trkpt>
            <trkpt lon="99.329503" lat="13.984866">
                <ele>60.400000</ele>
                <time>2018-09-30T04:36:49Z</time>
            </trkpt>
            <trkpt lon="99.329926" lat="13.985263">
                <ele>60.800000</ele>
                <time>2018-09-30T04:37:01Z</time>
            </trkpt>
            <trkpt lon="99.330321" lat="13.985652">
                <ele>61.000000</ele>
                <time>2018-09-30T04:37:12Z</time>
            </trkpt>
            <trkpt lon="99.330394" lat="13.985722">
                <ele>61.000000</ele>
                <time>2018-09-30T04:37:14Z</time>
            </trkpt>
            <trkpt lon="99.330788" lat="13.986117">
                <ele>61.600000</ele>
                <time>2018-09-30T04:37:25Z</time>
            </trkpt>
            <trkpt lon="99.330967" lat="13.986296">
                <ele>62.000000</ele>
                <time>2018-09-30T04:37:30Z</time>
            </trkpt>
            <trkpt lon="99.331371" lat="13.986702">
                <ele>62.400000</ele>
                <time>2018-09-30T04:37:41Z</time>
            </trkpt>
            <trkpt lon="99.331762" lat="13.987094">
                <ele>62.800000</ele>
                <time>2018-09-30T04:37:52Z</time>
            </trkpt>
            <trkpt lon="99.331796" lat="13.987129">
                <ele>62.800000</ele>
                <time>2018-09-30T04:37:53Z</time>
            </trkpt>
            <trkpt lon="99.332191" lat="13.987523">
                <ele>63.000000</ele>
                <time>2018-09-30T04:38:03Z</time>
            </trkpt>
            <trkpt lon="99.332281" lat="13.987615">
                <ele>63.000000</ele>
                <time>2018-09-30T04:38:05Z</time>
            </trkpt>
            <trkpt lon="99.332689" lat="13.988045">
                <ele>63.000000</ele>
                <time>2018-09-30T04:38:14Z</time>
            </trkpt>
            <trkpt lon="99.333103" lat="13.988471">
                <ele>63.200000</ele>
                <time>2018-09-30T04:38:24Z</time>
            </trkpt>
            <trkpt lon="99.333420" lat="13.988791">
                <ele>63.800000</ele>
                <time>2018-09-30T04:38:32Z</time>
            </trkpt>
            <trkpt lon="99.333807" lat="13.989186">
                <ele>65.000000</ele>
                <time>2018-09-30T04:38:42Z</time>
            </trkpt>
            <trkpt lon="99.334211" lat="13.989610">
                <ele>65.800000</ele>
                <time>2018-09-30T04:38:53Z</time>
            </trkpt>
            <trkpt lon="99.334324" lat="13.989721">
                <ele>66.000000</ele>
                <time>2018-09-30T04:38:56Z</time>
            </trkpt>
            <trkpt lon="99.334717" lat="13.990099">
                <ele>66.400000</ele>
                <time>2018-09-30T04:39:07Z</time>
            </trkpt>
            <trkpt lon="99.335034" lat="13.990430">
                <ele>66.400000</ele>
                <time>2018-09-30T04:39:16Z</time>
            </trkpt>
            <trkpt lon="99.334913" lat="13.990627">
                <ele>66.400000</ele>
                <time>2018-09-30T04:39:21Z</time>
            </trkpt>
            <trkpt lon="99.334717" lat="13.990787">
                <ele>66.400000</ele>
                <time>2018-09-30T04:39:25Z</time>
            </trkpt>
            <trkpt lon="99.334190" lat="13.991049">
                <ele>65.200000</ele>
                <time>2018-09-30T04:39:35Z</time>
            </trkpt>
            <trkpt lon="99.333929" lat="13.991219">
                <ele>66.800000</ele>
                <time>2018-09-30T04:39:43Z</time>
            </trkpt>
            <trkpt lon="99.333924" lat="13.991292">
                <ele>67.200000</ele>
                <time>2018-09-30T04:39:45Z</time>
            </trkpt>
            <trkpt lon="99.333954" lat="13.991358">
                <ele>67.400000</ele>
                <time>2018-09-30T04:39:47Z</time>
            </trkpt>
            <trkpt lon="99.334154" lat="13.991854">
                <ele>67.800000</ele>
                <time>2018-09-30T04:40:03Z</time>
            </trkpt>
            <trkpt lon="99.334261" lat="13.991994">
                <ele>68.400000</ele>
                <time>2018-09-30T04:40:08Z</time>
            </trkpt>
            <trkpt lon="99.334407" lat="13.992131">
                <ele>69.200000</ele>
                <time>2018-09-30T04:40:14Z</time>
            </trkpt>
            <trkpt lon="99.334511" lat="13.992107">
                <ele>69.200000</ele>
                <time>2018-09-30T04:40:17Z</time>
            </trkpt>
            <trkpt lon="99.334578" lat="13.992241">
                <ele>69.200000</ele>
                <time>2018-09-30T04:40:22Z</time>
            </trkpt>
            <trkpt lon="99.334566" lat="13.992280">
                <ele>69.200000</ele>
                <time>2018-09-30T04:40:23Z</time>
            </trkpt>
            <trkpt lon="99.334638" lat="13.992739">
                <ele>69.400000</ele>
                <time>2018-09-30T04:40:37Z</time>
            </trkpt>
            <trkpt lon="99.334650" lat="13.992771">
                <ele>69.600000</ele>
                <time>2018-09-30T04:40:38Z</time>
            </trkpt>
            <trkpt lon="99.334567" lat="13.993324">
                <ele>70.400000</ele>
                <time>2018-09-30T04:40:55Z</time>
            </trkpt>
            <trkpt lon="99.334406" lat="13.993540">
                <ele>70.600000</ele>
                <time>2018-09-30T04:41:03Z</time>
            </trkpt>
            <trkpt lon="99.334181" lat="13.993811">
                <ele>71.800000</ele>
                <time>2018-09-30T04:41:15Z</time>
            </trkpt>
            <trkpt lon="99.333811" lat="13.994218">
                <ele>72.600000</ele>
                <time>2018-09-30T04:41:32Z</time>
            </trkpt>
            <trkpt lon="99.333668" lat="13.994325">
                <ele>72.800000</ele>
                <time>2018-09-30T04:41:38Z</time>
            </trkpt>
            <trkpt lon="99.333382" lat="13.994375">
                <ele>73.800000</ele>
                <time>2018-09-30T04:41:50Z</time>
            </trkpt>
            <trkpt lon="99.333271" lat="13.994430">
                <ele>74.800000</ele>
                <time>2018-09-30T04:41:57Z</time>
            </trkpt>
            <trkpt lon="99.332880" lat="13.994638">
                <ele>76.000000</ele>
                <time>2018-09-30T04:42:13Z</time>
            </trkpt>
            <trkpt lon="99.332564" lat="13.994786">
                <ele>77.200000</ele>
                <time>2018-09-30T04:42:26Z</time>
            </trkpt>
            <trkpt lon="99.332302" lat="13.994899">
                <ele>77.600000</ele>
                <time>2018-09-30T04:42:35Z</time>
            </trkpt>
            <trkpt lon="99.331891" lat="13.995234">
                <ele>77.400000</ele>
                <time>2018-09-30T04:42:52Z</time>
            </trkpt>
            <trkpt lon="99.331508" lat="13.995479">
                <ele>77.200000</ele>
                <time>2018-09-30T04:43:09Z</time>
            </trkpt>
            <trkpt lon="99.331440" lat="13.995536">
                <ele>76.800000</ele>
                <time>2018-09-30T04:43:11Z</time>
            </trkpt>
            <trkpt lon="99.331371" lat="13.995600">
                <ele>76.800000</ele>
                <time>2018-09-30T04:43:13Z</time>
            </trkpt>
            <trkpt lon="99.331112" lat="13.995644">
                <ele>76.400000</ele>
                <time>2018-09-30T04:43:18Z</time>
            </trkpt>
            <trkpt lon="99.331054" lat="13.995650">
                <ele>76.200000</ele>
                <time>2018-09-30T04:43:19Z</time>
            </trkpt>
            <trkpt lon="99.330757" lat="13.995663">
                <ele>75.200000</ele>
                <time>2018-09-30T04:43:24Z</time>
            </trkpt>
            <trkpt lon="99.330545" lat="13.995614">
                <ele>74.000000</ele>
                <time>2018-09-30T04:43:28Z</time>
            </trkpt>
            <trkpt lon="99.330060" lat="13.995501">
                <ele>73.200000</ele>
                <time>2018-09-30T04:43:38Z</time>
            </trkpt>
            <trkpt lon="99.330009" lat="13.995502">
                <ele>73.000000</ele>
                <time>2018-09-30T04:43:39Z</time>
            </trkpt>
            <trkpt lon="99.329960" lat="13.995500">
                <ele>73.000000</ele>
                <time>2018-09-30T04:43:40Z</time>
            </trkpt>
            <trkpt lon="99.329868" lat="13.995501">
                <ele>73.000000</ele>
                <time>2018-09-30T04:43:42Z</time>
            </trkpt>
            <trkpt lon="99.329774" lat="13.995619">
                <ele>72.800000</ele>
                <time>2018-09-30T04:43:46Z</time>
            </trkpt>
            <trkpt lon="99.329603" lat="13.995868">
                <ele>72.600000</ele>
                <time>2018-09-30T04:43:54Z</time>
            </trkpt>
            <trkpt lon="99.329314" lat="13.996322">
                <ele>72.800000</ele>
                <time>2018-09-30T04:44:08Z</time>
            </trkpt>
            <trkpt lon="99.329394" lat="13.996576">
                <ele>74.200000</ele>
                <time>2018-09-30T04:44:21Z</time>
            </trkpt>
            <trkpt lon="99.329412" lat="13.996638">
                <ele>75.000000</ele>
                <time>2018-09-30T04:44:25Z</time>
            </trkpt>
            <trkpt lon="99.329416" lat="13.996655">
                <ele>75.000000</ele>
                <time>2018-09-30T04:44:26Z</time>
            </trkpt>
            <trkpt lon="99.329452" lat="13.996709">
                <ele>75.200000</ele>
                <time>2018-09-30T04:44:30Z</time>
            </trkpt>
            <trkpt lon="99.329553" lat="13.996874">
                <ele>76.400000</ele>
                <time>2018-09-30T04:44:41Z</time>
            </trkpt>
            <trkpt lon="99.329551" lat="13.996963">
                <ele>76.800000</ele>
                <time>2018-09-30T04:44:45Z</time>
            </trkpt>
            <trkpt lon="99.329588" lat="13.997104">
                <ele>77.400000</ele>
                <time>2018-09-30T04:44:53Z</time>
            </trkpt>
            <trkpt lon="99.329560" lat="13.997243">
                <ele>78.200000</ele>
                <time>2018-09-30T04:45:01Z</time>
            </trkpt>
            <trkpt lon="99.329567" lat="13.997275">
                <ele>78.400000</ele>
                <time>2018-09-30T04:45:03Z</time>
            </trkpt>
            <trkpt lon="99.329607" lat="13.997410">
                <ele>79.600000</ele>
                <time>2018-09-30T04:45:11Z</time>
            </trkpt>
            <trkpt lon="99.329764" lat="13.997585">
                <ele>80.000000</ele>
                <time>2018-09-30T04:45:23Z</time>
            </trkpt>
            <trkpt lon="99.329856" lat="13.997663">
                <ele>80.400000</ele>
                <time>2018-09-30T04:45:33Z</time>
            </trkpt>
            <trkpt lon="99.329906" lat="13.997765">
                <ele>80.600000</ele>
                <time>2018-09-30T04:45:40Z</time>
            </trkpt>
            <trkpt lon="99.329910" lat="13.997782">
                <ele>80.600000</ele>
                <time>2018-09-30T04:45:41Z</time>
            </trkpt>
            <trkpt lon="99.330172" lat="13.998011">
                <ele>81.800000</ele>
                <time>2018-09-30T04:45:59Z</time>
            </trkpt>
            <trkpt lon="99.330433" lat="13.998429">
                <ele>83.000000</ele>
                <time>2018-09-30T04:46:22Z</time>
            </trkpt>
            <trkpt lon="99.330604" lat="13.998658">
                <ele>84.200000</ele>
                <time>2018-09-30T04:46:35Z</time>
            </trkpt>
            <trkpt lon="99.330788" lat="13.998912">
                <ele>85.200000</ele>
                <time>2018-09-30T04:46:50Z</time>
            </trkpt>
            <trkpt lon="99.330806" lat="13.998933">
                <ele>85.200000</ele>
                <time>2018-09-30T04:46:52Z</time>
            </trkpt>
            <trkpt lon="99.330809" lat="13.998954">
                <ele>85.400000</ele>
                <time>2018-09-30T04:46:58Z</time>
            </trkpt>
            <trkpt lon="99.330809" lat="13.998954">
                <ele>85.400000</ele>
                <time>2018-09-30T04:46:59Z</time>
            </trkpt>
            <trkpt lon="99.330854" lat="13.998954">
                <ele>86.000000</ele>
                <time>2018-09-30T04:48:52Z</time>
            </trkpt>
            <trkpt lon="99.331218" lat="13.999129">
                <ele>86.400000</ele>
                <time>2018-09-30T04:49:12Z</time>
            </trkpt>
            <trkpt lon="99.331312" lat="13.999176">
                <ele>86.600000</ele>
                <time>2018-09-30T04:49:17Z</time>
            </trkpt>
            <trkpt lon="99.331387" lat="13.999222">
                <ele>86.600000</ele>
                <time>2018-09-30T04:49:21Z</time>
            </trkpt>
            <trkpt lon="99.331508" lat="13.999302">
                <ele>86.000000</ele>
                <time>2018-09-30T04:49:29Z</time>
            </trkpt>
            <trkpt lon="99.331534" lat="13.999307">
                <ele>86.000000</ele>
                <time>2018-09-30T04:49:31Z</time>
            </trkpt>
            <trkpt lon="99.331616" lat="13.999314">
                <ele>86.000000</ele>
                <time>2018-09-30T04:49:35Z</time>
            </trkpt>
            <trkpt lon="99.331813" lat="13.999520">
                <ele>85.400000</ele>
                <time>2018-09-30T04:49:46Z</time>
            </trkpt>
            <trkpt lon="99.331907" lat="13.999662">
                <ele>85.200000</ele>
                <time>2018-09-30T04:49:53Z</time>
            </trkpt>
            <trkpt lon="99.332133" lat="13.999964">
                <ele>85.000000</ele>
                <time>2018-09-30T04:50:06Z</time>
            </trkpt>
            <trkpt lon="99.332148" lat="14.000114">
                <ele>85.000000</ele>
                <time>2018-09-30T04:50:14Z</time>
            </trkpt>
            <trkpt lon="99.332467" lat="14.000293">
                <ele>84.400000</ele>
                <time>2018-09-30T04:50:30Z</time>
            </trkpt>
            <trkpt lon="99.332612" lat="14.000380">
                <ele>84.200000</ele>
                <time>2018-09-30T04:50:39Z</time>
            </trkpt>
            <trkpt lon="99.332638" lat="14.000378">
                <ele>84.400000</ele>
                <time>2018-09-30T04:50:41Z</time>
            </trkpt>
            <trkpt lon="99.332777" lat="14.000299">
                <ele>84.400000</ele>
                <time>2018-09-30T04:50:50Z</time>
            </trkpt>
            <trkpt lon="99.332946" lat="14.000183">
                <ele>83.600000</ele>
                <time>2018-09-30T04:51:00Z</time>
            </trkpt>
            <trkpt lon="99.332993" lat="14.000151">
                <ele>83.200000</ele>
                <time>2018-09-30T04:51:04Z</time>
            </trkpt>
            <trkpt lon="99.333042" lat="14.000123">
                <ele>82.800000</ele>
                <time>2018-09-30T04:51:17Z</time>
            </trkpt>
            <trkpt lon="99.333070" lat="14.000103">
                <ele>82.800000</ele>
                <time>2018-09-30T04:51:20Z</time>
            </trkpt>
            <trkpt lon="99.333228" lat="13.999973">
                <ele>82.600000</ele>
                <time>2018-09-30T04:51:30Z</time>
            </trkpt>
            <trkpt lon="99.333489" lat="13.999761">
                <ele>81.400000</ele>
                <time>2018-09-30T04:51:42Z</time>
            </trkpt>
            <trkpt lon="99.333875" lat="13.999490">
                <ele>82.400000</ele>
                <time>2018-09-30T04:52:07Z</time>
            </trkpt>
            <trkpt lon="99.334339" lat="13.999168">
                <ele>82.200000</ele>
                <time>2018-09-30T04:52:32Z</time>
            </trkpt>
            <trkpt lon="99.334814" lat="13.998859">
                <ele>81.600000</ele>
                <time>2018-09-30T04:52:53Z</time>
            </trkpt>
            <trkpt lon="99.334883" lat="13.998814">
                <ele>81.400000</ele>
                <time>2018-09-30T04:52:56Z</time>
            </trkpt>
            <trkpt lon="99.335350" lat="13.998510">
                <ele>81.200000</ele>
                <time>2018-09-30T04:53:18Z</time>
            </trkpt>
            <trkpt lon="99.335630" lat="13.998331">
                <ele>81.200000</ele>
                <time>2018-09-30T04:53:31Z</time>
            </trkpt>
            <trkpt lon="99.335644" lat="13.998340">
                <ele>81.200000</ele>
                <time>2018-09-30T04:53:32Z</time>
            </trkpt>
            <trkpt lon="99.335687" lat="13.998397">
                <ele>81.000000</ele>
                <time>2018-09-30T04:53:36Z</time>
            </trkpt>
            <trkpt lon="99.336071" lat="13.998799">
                <ele>81.600000</ele>
                <time>2018-09-30T04:54:03Z</time>
            </trkpt>
            <trkpt lon="99.336389" lat="13.999174">
                <ele>82.400000</ele>
                <time>2018-09-30T04:54:29Z</time>
            </trkpt>
            <trkpt lon="99.336751" lat="13.999597">
                <ele>83.200000</ele>
                <time>2018-09-30T04:54:56Z</time>
            </trkpt>
            <trkpt lon="99.336796" lat="13.999667">
                <ele>83.000000</ele>
                <time>2018-09-30T04:55:01Z</time>
            </trkpt>
            <trkpt lon="99.336800" lat="13.999673">
                <ele>83.000000</ele>
                <time>2018-09-30T04:55:02Z</time>
            </trkpt>
            <trkpt lon="99.336831" lat="13.999695">
                <ele>83.000000</ele>
                <time>2018-09-30T04:55:05Z</time>
            </trkpt>
            <trkpt lon="99.337124" lat="13.999535">
                <ele>82.600000</ele>
                <time>2018-09-30T04:55:15Z</time>
            </trkpt>
            <trkpt lon="99.337258" lat="13.999655">
                <ele>81.400000</ele>
                <time>2018-09-30T04:55:21Z</time>
            </trkpt>
            <trkpt lon="99.337291" lat="13.999702">
                <ele>80.600000</ele>
                <time>2018-09-30T04:55:25Z</time>
            </trkpt>
            <trkpt lon="99.337540" lat="14.000218">
                <ele>82.200000</ele>
                <time>2018-09-30T04:55:57Z</time>
            </trkpt>
            <trkpt lon="99.337562" lat="14.000283">
                <ele>82.400000</ele>
                <time>2018-09-30T04:56:01Z</time>
            </trkpt>
            <trkpt lon="99.337701" lat="14.000531">
                <ele>83.400000</ele>
                <time>2018-09-30T04:56:16Z</time>
            </trkpt>
            <trkpt lon="99.337973" lat="14.001034">
                <ele>84.200000</ele>
                <time>2018-09-30T04:56:42Z</time>
            </trkpt>
            <trkpt lon="99.338012" lat="14.001111">
                <ele>84.400000</ele>
                <time>2018-09-30T04:56:46Z</time>
            </trkpt>
            <trkpt lon="99.338263" lat="14.001627">
                <ele>85.000000</ele>
                <time>2018-09-30T04:57:11Z</time>
            </trkpt>
            <trkpt lon="99.338348" lat="14.002141">
                <ele>84.800000</ele>
                <time>2018-09-30T04:57:31Z</time>
            </trkpt>
            <trkpt lon="99.337970" lat="14.002310">
                <ele>85.200000</ele>
                <time>2018-09-30T04:57:45Z</time>
            </trkpt>
            <trkpt lon="99.337645" lat="14.002469">
                <ele>86.200000</ele>
                <time>2018-09-30T04:58:02Z</time>
            </trkpt>
            <trkpt lon="99.337360" lat="14.002628">
                <ele>87.200000</ele>
                <time>2018-09-30T04:58:18Z</time>
            </trkpt>
            <trkpt lon="99.337330" lat="14.002694">
                <ele>87.600000</ele>
                <time>2018-09-30T04:58:22Z</time>
            </trkpt>
            <trkpt lon="99.337393" lat="14.002834">
                <ele>88.000000</ele>
                <time>2018-09-30T04:58:29Z</time>
            </trkpt>
            <trkpt lon="99.337481" lat="14.003023">
                <ele>88.200000</ele>
                <time>2018-09-30T04:58:37Z</time>
            </trkpt>
            <trkpt lon="99.337665" lat="14.003415">
                <ele>88.800000</ele>
                <time>2018-09-30T04:58:55Z</time>
            </trkpt>
            <trkpt lon="99.337763" lat="14.003388">
                <ele>88.800000</ele>
                <time>2018-09-30T04:58:59Z</time>
            </trkpt>
            <trkpt lon="99.338300" lat="14.003153">
                <ele>88.200000</ele>
                <time>2018-09-30T04:59:16Z</time>
            </trkpt>
            <trkpt lon="99.338823" lat="14.002947">
                <ele>87.200000</ele>
                <time>2018-09-30T04:59:31Z</time>
            </trkpt>
            <trkpt lon="99.338855" lat="14.002933">
                <ele>87.000000</ele>
                <time>2018-09-30T04:59:32Z</time>
            </trkpt>
            <trkpt lon="99.339372" lat="14.002713">
                <ele>86.000000</ele>
                <time>2018-09-30T04:59:47Z</time>
            </trkpt>
            <trkpt lon="99.339883" lat="14.002491">
                <ele>85.000000</ele>
                <time>2018-09-30T05:00:01Z</time>
            </trkpt>
            <trkpt lon="99.339920" lat="14.002471">
                <ele>84.800000</ele>
                <time>2018-09-30T05:00:02Z</time>
            </trkpt>
            <trkpt lon="99.340072" lat="14.002397">
                <ele>84.400000</ele>
                <time>2018-09-30T05:00:06Z</time>
            </trkpt>
            <trkpt lon="99.340300" lat="14.002296">
                <ele>83.800000</ele>
                <time>2018-09-30T05:00:12Z</time>
            </trkpt>
            <trkpt lon="99.340473" lat="14.002212">
                <ele>83.600000</ele>
                <time>2018-09-30T05:00:17Z</time>
            </trkpt>
            <trkpt lon="99.340797" lat="14.002065">
                <ele>83.000000</ele>
                <time>2018-09-30T05:00:25Z</time>
            </trkpt>
            <trkpt lon="99.340921" lat="14.002005">
                <ele>82.600000</ele>
                <time>2018-09-30T05:00:28Z</time>
            </trkpt>
            <trkpt lon="99.341171" lat="14.001892">
                <ele>81.600000</ele>
                <time>2018-09-30T05:00:34Z</time>
            </trkpt>
            <trkpt lon="99.341215" lat="14.001889">
                <ele>81.600000</ele>
                <time>2018-09-30T05:00:35Z</time>
            </trkpt>
            <trkpt lon="99.341416" lat="14.002149">
                <ele>81.200000</ele>
                <time>2018-09-30T05:00:43Z</time>
            </trkpt>
            <trkpt lon="99.341525" lat="14.002367">
                <ele>80.600000</ele>
                <time>2018-09-30T05:00:48Z</time>
            </trkpt>
            <trkpt lon="99.341811" lat="14.002876">
                <ele>80.200000</ele>
                <time>2018-09-30T05:01:03Z</time>
            </trkpt>
            <trkpt lon="99.342034" lat="14.003392">
                <ele>81.000000</ele>
                <time>2018-09-30T05:01:20Z</time>
            </trkpt>
            <trkpt lon="99.342232" lat="14.003927">
                <ele>81.200000</ele>
                <time>2018-09-30T05:01:35Z</time>
            </trkpt>
            <trkpt lon="99.342407" lat="14.004452">
                <ele>80.400000</ele>
                <time>2018-09-30T05:01:49Z</time>
            </trkpt>
            <trkpt lon="99.342560" lat="14.004996">
                <ele>80.600000</ele>
                <time>2018-09-30T05:02:03Z</time>
            </trkpt>
            <trkpt lon="99.342678" lat="14.005535">
                <ele>81.000000</ele>
                <time>2018-09-30T05:02:18Z</time>
            </trkpt>
            <trkpt lon="99.342708" lat="14.005643">
                <ele>81.400000</ele>
                <time>2018-09-30T05:02:21Z</time>
            </trkpt>
            <trkpt lon="99.342728" lat="14.005708">
                <ele>81.600000</ele>
                <time>2018-09-30T05:02:23Z</time>
            </trkpt>
            <trkpt lon="99.342804" lat="14.005956">
                <ele>82.800000</ele>
                <time>2018-09-30T05:02:33Z</time>
            </trkpt>
            <trkpt lon="99.342972" lat="14.006226">
                <ele>84.000000</ele>
                <time>2018-09-30T05:02:45Z</time>
            </trkpt>
            <trkpt lon="99.343070" lat="14.006368">
                <ele>84.000000</ele>
                <time>2018-09-30T05:02:50Z</time>
            </trkpt>
            <trkpt lon="99.343289" lat="14.006892">
                <ele>83.200000</ele>
                <time>2018-09-30T05:03:06Z</time>
            </trkpt>
            <trkpt lon="99.343567" lat="14.007365">
                <ele>83.800000</ele>
                <time>2018-09-30T05:03:22Z</time>
            </trkpt>
            <trkpt lon="99.344014" lat="14.007173">
                <ele>84.200000</ele>
                <time>2018-09-30T05:03:40Z</time>
            </trkpt>
            <trkpt lon="99.344469" lat="14.006807">
                <ele>83.800000</ele>
                <time>2018-09-30T05:03:54Z</time>
            </trkpt>
            <trkpt lon="99.344847" lat="14.006672">
                <ele>83.600000</ele>
                <time>2018-09-30T05:04:04Z</time>
            </trkpt>
            <trkpt lon="99.345424" lat="14.006719">
                <ele>83.800000</ele>
                <time>2018-09-30T05:04:21Z</time>
            </trkpt>
            <trkpt lon="99.345728" lat="14.006832">
                <ele>85.000000</ele>
                <time>2018-09-30T05:04:34Z</time>
            </trkpt>
            <trkpt lon="99.345917" lat="14.006917">
                <ele>86.000000</ele>
                <time>2018-09-30T05:04:44Z</time>
            </trkpt>
            <trkpt lon="99.346008" lat="14.006941">
                <ele>86.600000</ele>
                <time>2018-09-30T05:04:49Z</time>
            </trkpt>
            <trkpt lon="99.346021" lat="14.006945">
                <ele>86.600000</ele>
                <time>2018-09-30T05:04:50Z</time>
            </trkpt>
            <trkpt lon="99.346081" lat="14.006961">
                <ele>87.000000</ele>
                <time>2018-09-30T05:04:54Z</time>
            </trkpt>
            <trkpt lon="99.346189" lat="14.007000">
                <ele>88.200000</ele>
                <time>2018-09-30T05:05:01Z</time>
            </trkpt>
            <trkpt lon="99.346208" lat="14.007008">
                <ele>88.200000</ele>
                <time>2018-09-30T05:05:03Z</time>
            </trkpt>
            <trkpt lon="99.346271" lat="14.007038">
                <ele>88.800000</ele>
                <time>2018-09-30T05:05:08Z</time>
            </trkpt>
            <trkpt lon="99.346284" lat="14.007041">
                <ele>88.800000</ele>
                <time>2018-09-30T05:05:09Z</time>
            </trkpt>
            <trkpt lon="99.346323" lat="14.007058">
                <ele>89.200000</ele>
                <time>2018-09-30T05:05:12Z</time>
            </trkpt>
            <trkpt lon="99.346471" lat="14.007177">
                <ele>90.200000</ele>
                <time>2018-09-30T05:05:26Z</time>
            </trkpt>
            <trkpt lon="99.346507" lat="14.007227">
                <ele>90.600000</ele>
                <time>2018-09-30T05:05:31Z</time>
            </trkpt>
            <trkpt lon="99.346489" lat="14.007289">
                <ele>91.200000</ele>
                <time>2018-09-30T05:05:35Z</time>
            </trkpt>
            <trkpt lon="99.346138" lat="14.007659">
                <ele>92.200000</ele>
                <time>2018-09-30T05:05:59Z</time>
            </trkpt>
            <trkpt lon="99.346110" lat="14.007753">
                <ele>92.200000</ele>
                <time>2018-09-30T05:06:03Z</time>
            </trkpt>
            <trkpt lon="99.345712" lat="14.008013">
                <ele>92.200000</ele>
                <time>2018-09-30T05:06:18Z</time>
            </trkpt>
            <trkpt lon="99.345600" lat="14.008146">
                <ele>91.200000</ele>
                <time>2018-09-30T05:06:22Z</time>
            </trkpt>
            <trkpt lon="99.345516" lat="14.008270">
                <ele>90.000000</ele>
                <time>2018-09-30T05:06:26Z</time>
            </trkpt>
            <trkpt lon="99.345270" lat="14.008580">
                <ele>89.200000</ele>
                <time>2018-09-30T05:06:36Z</time>
            </trkpt>
            <trkpt lon="99.345209" lat="14.008649">
                <ele>89.000000</ele>
                <time>2018-09-30T05:06:38Z</time>
            </trkpt>
            <trkpt lon="99.345213" lat="14.008817">
                <ele>88.000000</ele>
                <time>2018-09-30T05:06:43Z</time>
            </trkpt>
            <trkpt lon="99.345280" lat="14.008997">
                <ele>87.000000</ele>
                <time>2018-09-30T05:06:48Z</time>
            </trkpt>
            <trkpt lon="99.345291" lat="14.009036">
                <ele>86.800000</ele>
                <time>2018-09-30T05:06:49Z</time>
            </trkpt>
            <trkpt lon="99.345407" lat="14.009287">
                <ele>85.800000</ele>
                <time>2018-09-30T05:06:55Z</time>
            </trkpt>
            <trkpt lon="99.345641" lat="14.009805">
                <ele>85.600000</ele>
                <time>2018-09-30T05:07:15Z</time>
            </trkpt>
            <trkpt lon="99.345797" lat="14.010108">
                <ele>87.000000</ele>
                <time>2018-09-30T05:07:30Z</time>
            </trkpt>
            <trkpt lon="99.345950" lat="14.010318">
                <ele>88.000000</ele>
                <time>2018-09-30T05:07:42Z</time>
            </trkpt>
            <trkpt lon="99.346425" lat="14.010631">
                <ele>88.400000</ele>
                <time>2018-09-30T05:08:07Z</time>
            </trkpt>
            <trkpt lon="99.346983" lat="14.010615">
                <ele>87.600000</ele>
                <time>2018-09-30T05:08:32Z</time>
            </trkpt>
            <trkpt lon="99.347353" lat="14.010702">
                <ele>88.600000</ele>
                <time>2018-09-30T05:08:52Z</time>
            </trkpt>
            <trkpt lon="99.347443" lat="14.010873">
                <ele>89.000000</ele>
                <time>2018-09-30T05:08:59Z</time>
            </trkpt>
            <trkpt lon="99.347468" lat="14.010917">
                <ele>89.000000</ele>
                <time>2018-09-30T05:09:00Z</time>
            </trkpt>
            <trkpt lon="99.347578" lat="14.011166">
                <ele>88.800000</ele>
                <time>2018-09-30T05:09:05Z</time>
            </trkpt>
            <trkpt lon="99.347622" lat="14.011241">
                <ele>87.600000</ele>
                <time>2018-09-30T05:09:07Z</time>
            </trkpt>
            <trkpt lon="99.347562" lat="14.011349">
                <ele>86.400000</ele>
                <time>2018-09-30T05:09:10Z</time>
            </trkpt>
            <trkpt lon="99.347489" lat="14.011412">
                <ele>86.000000</ele>
                <time>2018-09-30T05:09:12Z</time>
            </trkpt>
            <trkpt lon="99.347380" lat="14.011513">
                <ele>85.800000</ele>
                <time>2018-09-30T05:09:15Z</time>
            </trkpt>
            <trkpt lon="99.347287" lat="14.011634">
                <ele>85.800000</ele>
                <time>2018-09-30T05:09:18Z</time>
            </trkpt>
            <trkpt lon="99.347229" lat="14.011833">
                <ele>85.800000</ele>
                <time>2018-09-30T05:09:22Z</time>
            </trkpt>
            <trkpt lon="99.347166" lat="14.012207">
                <ele>85.800000</ele>
                <time>2018-09-30T05:09:30Z</time>
            </trkpt>
            <trkpt lon="99.347169" lat="14.012346">
                <ele>86.000000</ele>
                <time>2018-09-30T05:09:33Z</time>
            </trkpt>
            <trkpt lon="99.347315" lat="14.012510">
                <ele>86.200000</ele>
                <time>2018-09-30T05:09:40Z</time>
            </trkpt>
            <trkpt lon="99.347418" lat="14.012928">
                <ele>86.800000</ele>
                <time>2018-09-30T05:09:55Z</time>
            </trkpt>
            <trkpt lon="99.347151" lat="14.013088">
                <ele>87.200000</ele>
                <time>2018-09-30T05:10:02Z</time>
            </trkpt>
            <trkpt lon="99.347061" lat="14.013164">
                <ele>87.400000</ele>
                <time>2018-09-30T05:10:05Z</time>
            </trkpt>
            <trkpt lon="99.347028" lat="14.013225">
                <ele>87.600000</ele>
                <time>2018-09-30T05:10:07Z</time>
            </trkpt>
            <trkpt lon="99.347047" lat="14.013466">
                <ele>87.400000</ele>
                <time>2018-09-30T05:10:14Z</time>
            </trkpt>
            <trkpt lon="99.347066" lat="14.013561">
                <ele>87.600000</ele>
                <time>2018-09-30T05:10:17Z</time>
            </trkpt>
            <trkpt lon="99.347010" lat="14.013723">
                <ele>88.000000</ele>
                <time>2018-09-30T05:10:22Z</time>
            </trkpt>
            <trkpt lon="99.346919" lat="14.013819">
                <ele>88.200000</ele>
                <time>2018-09-30T05:10:25Z</time>
            </trkpt>
            <trkpt lon="99.346939" lat="14.013985">
                <ele>88.200000</ele>
                <time>2018-09-30T05:10:30Z</time>
            </trkpt>
            <trkpt lon="99.347218" lat="14.014440">
                <ele>88.200000</ele>
                <time>2018-09-30T05:10:43Z</time>
            </trkpt>
            <trkpt lon="99.347436" lat="14.014672">
                <ele>88.600000</ele>
                <time>2018-09-30T05:10:51Z</time>
            </trkpt>
            <trkpt lon="99.347527" lat="14.014992">
                <ele>89.800000</ele>
                <time>2018-09-30T05:11:01Z</time>
            </trkpt>
            <trkpt lon="99.347644" lat="14.015467">
                <ele>91.000000</ele>
                <time>2018-09-30T05:11:15Z</time>
            </trkpt>
            <trkpt lon="99.347690" lat="14.015665">
                <ele>92.000000</ele>
                <time>2018-09-30T05:11:26Z</time>
            </trkpt>
            <trkpt lon="99.347594" lat="14.015695">
                <ele>92.400000</ele>
                <time>2018-09-30T05:11:30Z</time>
            </trkpt>
            <trkpt lon="99.347010" lat="14.015698">
                <ele>91.600000</ele>
                <time>2018-09-30T05:11:42Z</time>
            </trkpt>
            <trkpt lon="99.346614" lat="14.015650">
                <ele>91.000000</ele>
                <time>2018-09-30T05:11:50Z</time>
            </trkpt>
            <trkpt lon="99.346564" lat="14.015655">
                <ele>91.000000</ele>
                <time>2018-09-30T05:11:51Z</time>
            </trkpt>
            <trkpt lon="99.346016" lat="14.015845">
                <ele>90.400000</ele>
                <time>2018-09-30T05:12:05Z</time>
            </trkpt>
            <trkpt lon="99.345719" lat="14.016015">
                <ele>92.200000</ele>
                <time>2018-09-30T05:12:17Z</time>
            </trkpt>
            <trkpt lon="99.345506" lat="14.016546">
                <ele>92.800000</ele>
                <time>2018-09-30T05:12:33Z</time>
            </trkpt>
            <trkpt lon="99.345277" lat="14.017079">
                <ele>92.600000</ele>
                <time>2018-09-30T05:12:48Z</time>
            </trkpt>
            <trkpt lon="99.345106" lat="14.017475">
                <ele>93.000000</ele>
                <time>2018-09-30T05:12:59Z</time>
            </trkpt>
            <trkpt lon="99.345089" lat="14.017990">
                <ele>93.000000</ele>
                <time>2018-09-30T05:13:10Z</time>
            </trkpt>
            <trkpt lon="99.345115" lat="14.018080">
                <ele>92.800000</ele>
                <time>2018-09-30T05:13:15Z</time>
            </trkpt>
            <trkpt lon="99.345125" lat="14.018084">
                <ele>92.600000</ele>
                <time>2018-09-30T05:13:16Z</time>
            </trkpt>
            <trkpt lon="99.345209" lat="14.018107">
                <ele>92.600000</ele>
                <time>2018-09-30T05:13:22Z</time>
            </trkpt>
            <trkpt lon="99.345759" lat="14.018281">
                <ele>93.000000</ele>
                <time>2018-09-30T05:13:42Z</time>
            </trkpt>
            <trkpt lon="99.345993" lat="14.018741">
                <ele>92.200000</ele>
                <time>2018-09-30T05:14:00Z</time>
            </trkpt>
            <trkpt lon="99.346003" lat="14.018765">
                <ele>92.200000</ele>
                <time>2018-09-30T05:14:01Z</time>
            </trkpt>
            <trkpt lon="99.346121" lat="14.019318">
                <ele>93.000000</ele>
                <time>2018-09-30T05:14:22Z</time>
            </trkpt>
            <trkpt lon="99.346352" lat="14.019773">
                <ele>93.200000</ele>
                <time>2018-09-30T05:14:41Z</time>
            </trkpt>
            <trkpt lon="99.346074" lat="14.020286">
                <ele>93.600000</ele>
                <time>2018-09-30T05:15:00Z</time>
            </trkpt>
            <trkpt lon="99.345995" lat="14.020338">
                <ele>93.800000</ele>
                <time>2018-09-30T05:15:03Z</time>
            </trkpt>
            <trkpt lon="99.345661" lat="14.020452">
                <ele>94.800000</ele>
                <time>2018-09-30T05:15:16Z</time>
            </trkpt>
            <trkpt lon="99.345482" lat="14.020494">
                <ele>96.000000</ele>
                <time>2018-09-30T05:15:24Z</time>
            </trkpt>
            <trkpt lon="99.345440" lat="14.020495">
                <ele>96.200000</ele>
                <time>2018-09-30T05:15:26Z</time>
            </trkpt>
            <trkpt lon="99.345421" lat="14.020493">
                <ele>96.200000</ele>
                <time>2018-09-30T05:15:27Z</time>
            </trkpt>
            <trkpt lon="99.345371" lat="14.020489">
                <ele>96.600000</ele>
                <time>2018-09-30T05:15:30Z</time>
            </trkpt>
            <trkpt lon="99.345315" lat="14.020495">
                <ele>97.000000</ele>
                <time>2018-09-30T05:15:34Z</time>
            </trkpt>
            <trkpt lon="99.345300" lat="14.020495">
                <ele>97.000000</ele>
                <time>2018-09-30T05:15:35Z</time>
            </trkpt>
            <trkpt lon="99.345275" lat="14.020500">
                <ele>97.200000</ele>
                <time>2018-09-30T05:15:37Z</time>
            </trkpt>
            <trkpt lon="99.345263" lat="14.020502">
                <ele>97.400000</ele>
                <time>2018-09-30T05:15:38Z</time>
            </trkpt>
            <trkpt lon="99.345141" lat="14.020605">
                <ele>100.000000</ele>
                <time>2018-09-30T05:17:14Z</time>
            </trkpt>
            <trkpt lon="99.345091" lat="14.021153">
                <ele>100.800000</ele>
                <time>2018-09-30T05:17:39Z</time>
            </trkpt>
            <trkpt lon="99.345078" lat="14.021321">
                <ele>101.000000</ele>
                <time>2018-09-30T05:17:45Z</time>
            </trkpt>
            <trkpt lon="99.345061" lat="14.021506">
                <ele>101.200000</ele>
                <time>2018-09-30T05:17:52Z</time>
            </trkpt>
            <trkpt lon="99.345064" lat="14.021543">
                <ele>101.000000</ele>
                <time>2018-09-30T05:17:55Z</time>
            </trkpt>
            <trkpt lon="99.345046" lat="14.021544">
                <ele>101.000000</ele>
                <time>2018-09-30T05:17:57Z</time>
            </trkpt>
            <trkpt lon="99.345057" lat="14.021406">
                <ele>101.000000</ele>
                <time>2018-09-30T05:18:07Z</time>
            </trkpt>
            <trkpt lon="99.345062" lat="14.021387">
                <ele>101.000000</ele>
                <time>2018-09-30T05:18:08Z</time>
            </trkpt>
            <trkpt lon="99.345120" lat="14.020824">
                <ele>101.200000</ele>
                <time>2018-09-30T05:18:29Z</time>
            </trkpt>
            <trkpt lon="99.345120" lat="14.020765">
                <ele>101.200000</ele>
                <time>2018-09-30T05:18:31Z</time>
            </trkpt>
            <trkpt lon="99.345115" lat="14.020678">
                <ele>101.200000</ele>
                <time>2018-09-30T05:18:33Z</time>
            </trkpt>
            <trkpt lon="99.345152" lat="14.020556">
                <ele>100.800000</ele>
                <time>2018-09-30T05:18:38Z</time>
            </trkpt>
            <trkpt lon="99.345156" lat="14.020548">
                <ele>100.400000</ele>
                <time>2018-09-30T05:18:45Z</time>
            </trkpt>
            <trkpt lon="99.345158" lat="14.020529">
                <ele>100.200000</ele>
                <time>2018-09-30T05:18:48Z</time>
            </trkpt>
            <trkpt lon="99.345156" lat="14.020462">
                <ele>101.000000</ele>
                <time>2018-09-30T05:19:46Z</time>
            </trkpt>
            <trkpt lon="99.345221" lat="14.019902">
                <ele>100.600000</ele>
                <time>2018-09-30T05:20:02Z</time>
            </trkpt>
            <trkpt lon="99.345226" lat="14.019863">
                <ele>100.600000</ele>
                <time>2018-09-30T05:20:03Z</time>
            </trkpt>
            <trkpt lon="99.345270" lat="14.019297">
                <ele>100.800000</ele>
                <time>2018-09-30T05:20:17Z</time>
            </trkpt>
            <trkpt lon="99.344899" lat="14.018949">
                <ele>101.000000</ele>
                <time>2018-09-30T05:20:34Z</time>
            </trkpt>
            <trkpt lon="99.344354" lat="14.018770">
                <ele>101.000000</ele>
                <time>2018-09-30T05:20:53Z</time>
            </trkpt>
            <trkpt lon="99.344068" lat="14.018721">
                <ele>101.400000</ele>
                <time>2018-09-30T05:21:02Z</time>
            </trkpt>
            <trkpt lon="99.343926" lat="14.018882">
                <ele>101.400000</ele>
                <time>2018-09-30T05:21:09Z</time>
            </trkpt>
            <trkpt lon="99.343724" lat="14.018954">
                <ele>101.400000</ele>
                <time>2018-09-30T05:21:18Z</time>
            </trkpt>
            <trkpt lon="99.343470" lat="14.019073">
                <ele>101.400000</ele>
                <time>2018-09-30T05:21:29Z</time>
            </trkpt>
            <trkpt lon="99.343436" lat="14.019111">
                <ele>101.200000</ele>
                <time>2018-09-30T05:21:31Z</time>
            </trkpt>
            <trkpt lon="99.343526" lat="14.019427">
                <ele>100.800000</ele>
                <time>2018-09-30T05:21:39Z</time>
            </trkpt>
            <trkpt lon="99.343491" lat="14.019528">
                <ele>100.600000</ele>
                <time>2018-09-30T05:21:41Z</time>
            </trkpt>
            <trkpt lon="99.343469" lat="14.019573">
                <ele>100.400000</ele>
                <time>2018-09-30T05:21:42Z</time>
            </trkpt>
            <trkpt lon="99.343427" lat="14.019651">
                <ele>99.000000</ele>
                <time>2018-09-30T05:21:44Z</time>
            </trkpt>
            <trkpt lon="99.343367" lat="14.019808">
                <ele>98.000000</ele>
                <time>2018-09-30T05:21:49Z</time>
            </trkpt>
            <trkpt lon="99.343239" lat="14.020245">
                <ele>98.600000</ele>
                <time>2018-09-30T05:22:09Z</time>
            </trkpt>
            <trkpt lon="99.343067" lat="14.020453">
                <ele>99.400000</ele>
                <time>2018-09-30T05:22:25Z</time>
            </trkpt>
            <trkpt lon="99.343021" lat="14.020504">
                <ele>100.600000</ele>
                <time>2018-09-30T05:22:30Z</time>
            </trkpt>
            <trkpt lon="99.342937" lat="14.020602">
                <ele>101.600000</ele>
                <time>2018-09-30T05:22:37Z</time>
            </trkpt>
            <trkpt lon="99.342574" lat="14.020802">
                <ele>102.600000</ele>
                <time>2018-09-30T05:22:55Z</time>
            </trkpt>
            <trkpt lon="99.342365" lat="14.020902">
                <ele>103.600000</ele>
                <time>2018-09-30T05:23:06Z</time>
            </trkpt>
            <trkpt lon="99.342204" lat="14.021083">
                <ele>104.800000</ele>
                <time>2018-09-30T05:23:19Z</time>
            </trkpt>
            <trkpt lon="99.342198" lat="14.021099">
                <ele>104.800000</ele>
                <time>2018-09-30T05:23:20Z</time>
            </trkpt>
            <trkpt lon="99.342130" lat="14.021274">
                <ele>105.800000</ele>
                <time>2018-09-30T05:23:32Z</time>
            </trkpt>
            <trkpt lon="99.342120" lat="14.021302">
                <ele>106.000000</ele>
                <time>2018-09-30T05:23:34Z</time>
            </trkpt>
            <trkpt lon="99.342006" lat="14.021315">
                <ele>106.400000</ele>
                <time>2018-09-30T05:23:40Z</time>
            </trkpt>
            <trkpt lon="99.341937" lat="14.021314">
                <ele>106.800000</ele>
                <time>2018-09-30T05:23:43Z</time>
            </trkpt>
            <trkpt lon="99.341793" lat="14.021355">
                <ele>107.600000</ele>
                <time>2018-09-30T05:23:50Z</time>
            </trkpt>
            <trkpt lon="99.341772" lat="14.021488">
                <ele>108.000000</ele>
                <time>2018-09-30T05:23:56Z</time>
            </trkpt>
            <trkpt lon="99.341753" lat="14.021862">
                <ele>109.200000</ele>
                <time>2018-09-30T05:24:10Z</time>
            </trkpt>
            <trkpt lon="99.341560" lat="14.022190">
                <ele>110.400000</ele>
                <time>2018-09-30T05:24:27Z</time>
            </trkpt>
            <trkpt lon="99.341283" lat="14.022461">
                <ele>111.400000</ele>
                <time>2018-09-30T05:24:43Z</time>
            </trkpt>
            <trkpt lon="99.341167" lat="14.023006">
                <ele>112.200000</ele>
                <time>2018-09-30T05:25:03Z</time>
            </trkpt>
            <trkpt lon="99.341101" lat="14.023218">
                <ele>112.800000</ele>
                <time>2018-09-30T05:25:11Z</time>
            </trkpt>
            <trkpt lon="99.340973" lat="14.023646">
                <ele>113.800000</ele>
                <time>2018-09-30T05:25:27Z</time>
            </trkpt>
            <trkpt lon="99.340899" lat="14.024206">
                <ele>115.000000</ele>
                <time>2018-09-30T05:25:46Z</time>
            </trkpt>
            <trkpt lon="99.340914" lat="14.024286">
                <ele>115.000000</ele>
                <time>2018-09-30T05:25:49Z</time>
            </trkpt>
            <trkpt lon="99.340935" lat="14.024307">
                <ele>115.000000</ele>
                <time>2018-09-30T05:25:50Z</time>
            </trkpt>
            <trkpt lon="99.341037" lat="14.024334">
                <ele>115.200000</ele>
                <time>2018-09-30T05:25:53Z</time>
            </trkpt>
            <trkpt lon="99.341611" lat="14.024409">
                <ele>114.400000</ele>
                <time>2018-09-30T05:26:07Z</time>
            </trkpt>
            <trkpt lon="99.341727" lat="14.024420">
                <ele>114.000000</ele>
                <time>2018-09-30T05:26:09Z</time>
            </trkpt>
            <trkpt lon="99.342046" lat="14.024458">
                <ele>113.000000</ele>
                <time>2018-09-30T05:26:14Z</time>
            </trkpt>
            <trkpt lon="99.342224" lat="14.024502">
                <ele>111.800000</ele>
                <time>2018-09-30T05:26:17Z</time>
            </trkpt>
            <trkpt lon="99.342441" lat="14.024555">
                <ele>110.800000</ele>
                <time>2018-09-30T05:26:21Z</time>
            </trkpt>
            <trkpt lon="99.342940" lat="14.024671">
                <ele>110.600000</ele>
                <time>2018-09-30T05:26:31Z</time>
            </trkpt>
            <trkpt lon="99.343002" lat="14.024848">
                <ele>110.600000</ele>
                <time>2018-09-30T05:26:35Z</time>
            </trkpt>
            <trkpt lon="99.343066" lat="14.025437">
                <ele>110.800000</ele>
                <time>2018-09-30T05:26:45Z</time>
            </trkpt>
            <trkpt lon="99.343135" lat="14.025933">
                <ele>110.600000</ele>
                <time>2018-09-30T05:26:53Z</time>
            </trkpt>
            <trkpt lon="99.343093" lat="14.026000">
                <ele>110.800000</ele>
                <time>2018-09-30T05:27:01Z</time>
            </trkpt>
            <trkpt lon="99.342550" lat="14.025924">
                <ele>111.600000</ele>
                <time>2018-09-30T05:27:16Z</time>
            </trkpt>
            <trkpt lon="99.342288" lat="14.025895">
                <ele>112.000000</ele>
                <time>2018-09-30T05:27:23Z</time>
            </trkpt>
            <trkpt lon="99.341880" lat="14.025845">
                <ele>113.200000</ele>
                <time>2018-09-30T05:27:34Z</time>
            </trkpt>
            <trkpt lon="99.341659" lat="14.025931">
                <ele>114.200000</ele>
                <time>2018-09-30T05:27:42Z</time>
            </trkpt>
            <trkpt lon="99.341593" lat="14.026459">
                <ele>115.200000</ele>
                <time>2018-09-30T05:27:58Z</time>
            </trkpt>
            <trkpt lon="99.341596" lat="14.026994">
                <ele>115.000000</ele>
                <time>2018-09-30T05:28:16Z</time>
            </trkpt>
        </trkseg>
    </trk>
</gpx>